<?xml version="1.0" encoding="UTF-8" standalone="no" ?>
<gpx xmlns="http://www.topografix.com/GPX/1/1" xmlns:xsi="http://www.w3.org/2001/XMLSchema-instance" xsi:schemaLocation="http://www.topografix.com/GPX/1/1 http://www.topografix.com/GPX/1/1/gpx.xsd" version="1.1" creator="VisuGPX - https://www.visugpx.com">
  <metadata>
    <name>circuit adeps   an ath</name>
    <desc><![CDATA[Circuit du matin marche adeps ( 13 personnes AN ATH)
Tourpes ]]></desc>
  </metadata>
  <trk>
    <name><![CDATA[2017-09-24 11:59:45]]></name>
    <trkseg>
      <trkpt lat="50.57453" lon="3.648">
        <ele>-36.87</ele>
        <time>2017-09-24T07:18:52Z</time>
      </trkpt>
      <trkpt lat="50.57451" lon="3.64796">
        <ele>-36.39</ele>
        <time>2017-09-24T07:19:14Z</time>
      </trkpt>
      <trkpt lat="50.57452" lon="3.64792">
        <ele>-36.39</ele>
        <time>2017-09-24T07:19:34Z</time>
      </trkpt>
      <trkpt lat="50.57451" lon="3.64788">
        <ele>-34.95</ele>
        <time>2017-09-24T07:19:54Z</time>
      </trkpt>
      <trkpt lat="50.5745" lon="3.64786">
        <ele>-35.43</ele>
        <time>2017-09-24T07:20:13Z</time>
      </trkpt>
      <trkpt lat="50.57452" lon="3.64786">
        <ele>-34.47</ele>
        <time>2017-09-24T07:20:31Z</time>
      </trkpt>
      <trkpt lat="50.57452" lon="3.6479">
        <ele>-33.51</ele>
        <time>2017-09-24T07:20:55Z</time>
      </trkpt>
      <trkpt lat="50.57447" lon="3.64792">
        <ele>-33.03</ele>
        <time>2017-09-24T07:21:10Z</time>
      </trkpt>
      <trkpt lat="50.5744" lon="3.64785">
        <ele>-31.59</ele>
        <time>2017-09-24T07:21:36Z</time>
      </trkpt>
      <trkpt lat="50.5745" lon="3.648">
        <ele>-30.62</ele>
        <time>2017-09-24T07:21:57Z</time>
      </trkpt>
      <trkpt lat="50.57446" lon="3.64792">
        <ele>-29.66</ele>
        <time>2017-09-24T07:22:20Z</time>
      </trkpt>
      <trkpt lat="50.57445" lon="3.64791">
        <ele>-28.22</ele>
        <time>2017-09-24T07:22:48Z</time>
      </trkpt>
      <trkpt lat="50.57447" lon="3.6479">
        <ele>-27.26</ele>
        <time>2017-09-24T07:23:14Z</time>
      </trkpt>
      <trkpt lat="50.57449" lon="3.64789">
        <ele>-26.3</ele>
        <time>2017-09-24T07:23:39Z</time>
      </trkpt>
      <trkpt lat="50.57447" lon="3.64789">
        <ele>-25.34</ele>
        <time>2017-09-24T07:23:57Z</time>
      </trkpt>
      <trkpt lat="50.57446" lon="3.64785">
        <ele>-24.38</ele>
        <time>2017-09-24T07:24:22Z</time>
      </trkpt>
      <trkpt lat="50.57446" lon="3.6479">
        <ele>-23.41</ele>
        <time>2017-09-24T07:24:44Z</time>
      </trkpt>
      <trkpt lat="50.57446" lon="3.64791">
        <ele>-22.45</ele>
        <time>2017-09-24T07:24:59Z</time>
      </trkpt>
      <trkpt lat="50.57454" lon="3.64798">
        <ele>-21.49</ele>
        <time>2017-09-24T07:25:22Z</time>
      </trkpt>
      <trkpt lat="50.57447" lon="3.64805">
        <ele>-20.53</ele>
        <time>2017-09-24T07:25:46Z</time>
      </trkpt>
      <trkpt lat="50.57449" lon="3.64803">
        <ele>-19.57</ele>
        <time>2017-09-24T07:26:09Z</time>
      </trkpt>
      <trkpt lat="50.57449" lon="3.64806">
        <ele>-18.61</ele>
        <time>2017-09-24T07:26:30Z</time>
      </trkpt>
      <trkpt lat="50.57449" lon="3.64792">
        <ele>-18.13</ele>
        <time>2017-09-24T07:26:47Z</time>
      </trkpt>
      <trkpt lat="50.57456" lon="3.6479">
        <ele>-17.17</ele>
        <time>2017-09-24T07:27:15Z</time>
      </trkpt>
      <trkpt lat="50.57451" lon="3.64791">
        <ele>-17.17</ele>
        <time>2017-09-24T07:27:39Z</time>
      </trkpt>
      <trkpt lat="50.5745" lon="3.64792">
        <ele>-16.21</ele>
        <time>2017-09-24T07:28:05Z</time>
      </trkpt>
      <trkpt lat="50.57451" lon="3.64791">
        <ele>-15.72</ele>
        <time>2017-09-24T07:28:27Z</time>
      </trkpt>
      <trkpt lat="50.5745" lon="3.64794">
        <ele>-14.76</ele>
        <time>2017-09-24T07:28:51Z</time>
      </trkpt>
      <trkpt lat="50.5745" lon="3.64791">
        <ele>-13.8</ele>
        <time>2017-09-24T07:29:16Z</time>
      </trkpt>
      <trkpt lat="50.57452" lon="3.64794">
        <ele>-11.88</ele>
        <time>2017-09-24T07:29:39Z</time>
      </trkpt>
      <trkpt lat="50.57452" lon="3.64792">
        <ele>-11.4</ele>
        <time>2017-09-24T07:30:04Z</time>
      </trkpt>
      <trkpt lat="50.57449" lon="3.64792">
        <ele>-10.44</ele>
        <time>2017-09-24T07:30:32Z</time>
      </trkpt>
      <trkpt lat="50.5745" lon="3.64793">
        <ele>-9.48</ele>
        <time>2017-09-24T07:30:56Z</time>
      </trkpt>
      <trkpt lat="50.5745" lon="3.64792">
        <ele>-8.03</ele>
        <time>2017-09-24T07:31:34Z</time>
      </trkpt>
      <trkpt lat="50.57451" lon="3.64792">
        <ele>-7.55</ele>
        <time>2017-09-24T07:31:57Z</time>
      </trkpt>
      <trkpt lat="50.57454" lon="3.64792">
        <ele>-6.59</ele>
        <time>2017-09-24T07:32:21Z</time>
      </trkpt>
      <trkpt lat="50.5745" lon="3.64792">
        <ele>-5.63</ele>
        <time>2017-09-24T07:32:54Z</time>
      </trkpt>
      <trkpt lat="50.5745" lon="3.64791">
        <ele>-5.15</ele>
        <time>2017-09-24T07:33:16Z</time>
      </trkpt>
      <trkpt lat="50.57451" lon="3.6479">
        <ele>-4.19</ele>
        <time>2017-09-24T07:33:39Z</time>
      </trkpt>
      <trkpt lat="50.57453" lon="3.64793">
        <ele>-3.71</ele>
        <time>2017-09-24T07:34:08Z</time>
      </trkpt>
      <trkpt lat="50.57449" lon="3.64797">
        <ele>-2.75</ele>
        <time>2017-09-24T07:34:36Z</time>
      </trkpt>
      <trkpt lat="50.57448" lon="3.64795">
        <ele>-1.79</ele>
        <time>2017-09-24T07:35:09Z</time>
      </trkpt>
      <trkpt lat="50.57453" lon="3.64792">
        <ele>-0.82</ele>
        <time>2017-09-24T07:35:37Z</time>
      </trkpt>
      <trkpt lat="50.57451" lon="3.64794">
        <ele>0.14</ele>
        <time>2017-09-24T07:35:58Z</time>
      </trkpt>
      <trkpt lat="50.57452" lon="3.64794">
        <ele>0.62</ele>
        <time>2017-09-24T07:36:23Z</time>
      </trkpt>
      <trkpt lat="50.57452" lon="3.64794">
        <ele>1.58</ele>
        <time>2017-09-24T07:36:44Z</time>
      </trkpt>
      <trkpt lat="50.57454" lon="3.64791">
        <ele>2.54</ele>
        <time>2017-09-24T07:37:13Z</time>
      </trkpt>
      <trkpt lat="50.57453" lon="3.64792">
        <ele>3.02</ele>
        <time>2017-09-24T07:37:39Z</time>
      </trkpt>
      <trkpt lat="50.57453" lon="3.64794">
        <ele>3.98</ele>
        <time>2017-09-24T07:38:08Z</time>
      </trkpt>
      <trkpt lat="50.57451" lon="3.64791">
        <ele>4.46</ele>
        <time>2017-09-24T07:38:33Z</time>
      </trkpt>
      <trkpt lat="50.57445" lon="3.64792">
        <ele>5.42</ele>
        <time>2017-09-24T07:39:01Z</time>
      </trkpt>
      <trkpt lat="50.57442" lon="3.64796">
        <ele>5.42</ele>
        <time>2017-09-24T07:39:08Z</time>
      </trkpt>
      <trkpt lat="50.57434" lon="3.64822">
        <ele>5.91</ele>
        <time>2017-09-24T07:39:26Z</time>
      </trkpt>
      <trkpt lat="50.57433" lon="3.64828">
        <ele>5.91</ele>
        <time>2017-09-24T07:39:30Z</time>
      </trkpt>
      <trkpt lat="50.57446" lon="3.6485">
        <ele>6.39</ele>
        <time>2017-09-24T07:39:48Z</time>
      </trkpt>
      <trkpt lat="50.57461" lon="3.6487">
        <ele>5.91</ele>
        <time>2017-09-24T07:40:04Z</time>
      </trkpt>
      <trkpt lat="50.57462" lon="3.64876">
        <ele>5.91</ele>
        <time>2017-09-24T07:40:09Z</time>
      </trkpt>
      <trkpt lat="50.57458" lon="3.64901">
        <ele>6.87</ele>
        <time>2017-09-24T07:40:26Z</time>
      </trkpt>
      <trkpt lat="50.57445" lon="3.64926">
        <ele>7.35</ele>
        <time>2017-09-24T07:40:40Z</time>
      </trkpt>
      <trkpt lat="50.57446" lon="3.64929">
        <ele>7.35</ele>
        <time>2017-09-24T07:40:42Z</time>
      </trkpt>
      <trkpt lat="50.5744" lon="3.64939">
        <ele>7.35</ele>
        <time>2017-09-24T07:40:48Z</time>
      </trkpt>
      <trkpt lat="50.57437" lon="3.64963">
        <ele>8.31</ele>
        <time>2017-09-24T07:41:02Z</time>
      </trkpt>
      <trkpt lat="50.57438" lon="3.64972">
        <ele>8.31</ele>
        <time>2017-09-24T07:41:08Z</time>
      </trkpt>
      <trkpt lat="50.57438" lon="3.64974">
        <ele>8.31</ele>
        <time>2017-09-24T07:41:09Z</time>
      </trkpt>
      <trkpt lat="50.57441" lon="3.65006">
        <ele>9.27</ele>
        <time>2017-09-24T07:41:27Z</time>
      </trkpt>
      <trkpt lat="50.57439" lon="3.6504">
        <ele>10.23</ele>
        <time>2017-09-24T07:41:45Z</time>
      </trkpt>
      <trkpt lat="50.57427" lon="3.65061">
        <ele>11.19</ele>
        <time>2017-09-24T07:42:01Z</time>
      </trkpt>
      <trkpt lat="50.57417" lon="3.65084">
        <ele>11.67</ele>
        <time>2017-09-24T07:42:18Z</time>
      </trkpt>
      <trkpt lat="50.57406" lon="3.65104">
        <ele>12.15</ele>
        <time>2017-09-24T07:42:32Z</time>
      </trkpt>
      <trkpt lat="50.57395" lon="3.65128">
        <ele>13.12</ele>
        <time>2017-09-24T07:42:48Z</time>
      </trkpt>
      <trkpt lat="50.57379" lon="3.65153">
        <ele>13.12</ele>
        <time>2017-09-24T07:43:05Z</time>
      </trkpt>
      <trkpt lat="50.57363" lon="3.65173">
        <ele>13.6</ele>
        <time>2017-09-24T07:43:23Z</time>
      </trkpt>
      <trkpt lat="50.57347" lon="3.65197">
        <ele>14.08</ele>
        <time>2017-09-24T07:43:41Z</time>
      </trkpt>
      <trkpt lat="50.57336" lon="3.65213">
        <ele>14.08</ele>
        <time>2017-09-24T07:43:54Z</time>
      </trkpt>
      <trkpt lat="50.57335" lon="3.65214">
        <ele>14.08</ele>
        <time>2017-09-24T07:43:55Z</time>
      </trkpt>
      <trkpt lat="50.57322" lon="3.65235">
        <ele>14.56</ele>
        <time>2017-09-24T07:44:09Z</time>
      </trkpt>
      <trkpt lat="50.57305" lon="3.65236">
        <ele>15.04</ele>
        <time>2017-09-24T07:44:24Z</time>
      </trkpt>
      <trkpt lat="50.5729" lon="3.65221">
        <ele>15.04</ele>
        <time>2017-09-24T07:44:40Z</time>
      </trkpt>
      <trkpt lat="50.5727" lon="3.652">
        <ele>15.52</ele>
        <time>2017-09-24T07:44:59Z</time>
      </trkpt>
      <trkpt lat="50.57255" lon="3.65183">
        <ele>16</ele>
        <time>2017-09-24T07:45:15Z</time>
      </trkpt>
      <trkpt lat="50.57252" lon="3.65181">
        <ele>16</ele>
        <time>2017-09-24T07:45:18Z</time>
      </trkpt>
      <trkpt lat="50.57234" lon="3.6518">
        <ele>16.48</ele>
        <time>2017-09-24T07:45:35Z</time>
      </trkpt>
      <trkpt lat="50.57232" lon="3.65181">
        <ele>16.48</ele>
        <time>2017-09-24T07:45:36Z</time>
      </trkpt>
      <trkpt lat="50.5722" lon="3.65183">
        <ele>14.56</ele>
        <time>2017-09-24T07:45:47Z</time>
      </trkpt>
      <trkpt lat="50.57197" lon="3.65187">
        <ele>15.04</ele>
        <time>2017-09-24T07:46:05Z</time>
      </trkpt>
      <trkpt lat="50.57179" lon="3.65186">
        <ele>15.04</ele>
        <time>2017-09-24T07:46:21Z</time>
      </trkpt>
      <trkpt lat="50.57157" lon="3.65182">
        <ele>15.04</ele>
        <time>2017-09-24T07:46:40Z</time>
      </trkpt>
      <trkpt lat="50.57138" lon="3.65183">
        <ele>15.52</ele>
        <time>2017-09-24T07:46:58Z</time>
      </trkpt>
      <trkpt lat="50.57127" lon="3.65187">
        <ele>15.52</ele>
        <time>2017-09-24T07:47:11Z</time>
      </trkpt>
      <trkpt lat="50.57104" lon="3.6519">
        <ele>16</ele>
        <time>2017-09-24T07:47:30Z</time>
      </trkpt>
      <trkpt lat="50.57083" lon="3.65194">
        <ele>16.48</ele>
        <time>2017-09-24T07:47:47Z</time>
      </trkpt>
      <trkpt lat="50.57067" lon="3.65205">
        <ele>16.96</ele>
        <time>2017-09-24T07:48:04Z</time>
      </trkpt>
      <trkpt lat="50.57055" lon="3.65215">
        <ele>16.96</ele>
        <time>2017-09-24T07:48:16Z</time>
      </trkpt>
      <trkpt lat="50.57043" lon="3.65234">
        <ele>17.44</ele>
        <time>2017-09-24T07:48:33Z</time>
      </trkpt>
      <trkpt lat="50.57044" lon="3.65257">
        <ele>17.92</ele>
        <time>2017-09-24T07:48:50Z</time>
      </trkpt>
      <trkpt lat="50.57039" lon="3.65271">
        <ele>18.4</ele>
        <time>2017-09-24T07:49:04Z</time>
      </trkpt>
      <trkpt lat="50.57037" lon="3.65271">
        <ele>18.88</ele>
        <time>2017-09-24T07:49:07Z</time>
      </trkpt>
      <trkpt lat="50.57033" lon="3.65271">
        <ele>18.88</ele>
        <time>2017-09-24T07:49:10Z</time>
      </trkpt>
      <trkpt lat="50.5702" lon="3.65274">
        <ele>18.88</ele>
        <time>2017-09-24T07:49:24Z</time>
      </trkpt>
      <trkpt lat="50.57011" lon="3.65279">
        <ele>18.88</ele>
        <time>2017-09-24T07:49:32Z</time>
      </trkpt>
      <trkpt lat="50.57007" lon="3.65282">
        <ele>15.04</ele>
        <time>2017-09-24T07:49:36Z</time>
      </trkpt>
      <trkpt lat="50.57006" lon="3.65282">
        <ele>19.84</ele>
        <time>2017-09-24T07:49:37Z</time>
      </trkpt>
      <trkpt lat="50.56984" lon="3.65278">
        <ele>18.4</ele>
        <time>2017-09-24T07:49:53Z</time>
      </trkpt>
      <trkpt lat="50.5697" lon="3.65278">
        <ele>18.4</ele>
        <time>2017-09-24T07:50:08Z</time>
      </trkpt>
      <trkpt lat="50.56953" lon="3.65284">
        <ele>18.88</ele>
        <time>2017-09-24T07:50:24Z</time>
      </trkpt>
      <trkpt lat="50.56935" lon="3.65291">
        <ele>19.36</ele>
        <time>2017-09-24T07:50:41Z</time>
      </trkpt>
      <trkpt lat="50.56924" lon="3.65295">
        <ele>19.36</ele>
        <time>2017-09-24T07:50:50Z</time>
      </trkpt>
      <trkpt lat="50.56905" lon="3.653">
        <ele>20.32</ele>
        <time>2017-09-24T07:51:07Z</time>
      </trkpt>
      <trkpt lat="50.56884" lon="3.65295">
        <ele>20.81</ele>
        <time>2017-09-24T07:51:26Z</time>
      </trkpt>
      <trkpt lat="50.56863" lon="3.65286">
        <ele>21.29</ele>
        <time>2017-09-24T07:51:46Z</time>
      </trkpt>
      <trkpt lat="50.56844" lon="3.65288">
        <ele>21.29</ele>
        <time>2017-09-24T07:52:05Z</time>
      </trkpt>
      <trkpt lat="50.56837" lon="3.65287">
        <ele>21.77</ele>
        <time>2017-09-24T07:52:11Z</time>
      </trkpt>
      <trkpt lat="50.56812" lon="3.65301">
        <ele>21.77</ele>
        <time>2017-09-24T07:52:32Z</time>
      </trkpt>
      <trkpt lat="50.56783" lon="3.65314">
        <ele>22.73</ele>
        <time>2017-09-24T07:52:53Z</time>
      </trkpt>
      <trkpt lat="50.56758" lon="3.65327">
        <ele>23.21</ele>
        <time>2017-09-24T07:53:13Z</time>
      </trkpt>
      <trkpt lat="50.56735" lon="3.65334">
        <ele>23.21</ele>
        <time>2017-09-24T07:53:32Z</time>
      </trkpt>
      <trkpt lat="50.5671" lon="3.65337">
        <ele>23.69</ele>
        <time>2017-09-24T07:53:51Z</time>
      </trkpt>
      <trkpt lat="50.56691" lon="3.65343">
        <ele>24.65</ele>
        <time>2017-09-24T07:54:08Z</time>
      </trkpt>
      <trkpt lat="50.56668" lon="3.65351">
        <ele>24.65</ele>
        <time>2017-09-24T07:54:26Z</time>
      </trkpt>
      <trkpt lat="50.56641" lon="3.65359">
        <ele>25.13</ele>
        <time>2017-09-24T07:54:46Z</time>
      </trkpt>
      <trkpt lat="50.56616" lon="3.65361">
        <ele>25.61</ele>
        <time>2017-09-24T07:55:04Z</time>
      </trkpt>
      <trkpt lat="50.56591" lon="3.65357">
        <ele>25.61</ele>
        <time>2017-09-24T07:55:23Z</time>
      </trkpt>
      <trkpt lat="50.56564" lon="3.65358">
        <ele>26.09</ele>
        <time>2017-09-24T07:55:44Z</time>
      </trkpt>
      <trkpt lat="50.56537" lon="3.65355">
        <ele>26.57</ele>
        <time>2017-09-24T07:56:05Z</time>
      </trkpt>
      <trkpt lat="50.56513" lon="3.65356">
        <ele>27.53</ele>
        <time>2017-09-24T07:56:24Z</time>
      </trkpt>
      <trkpt lat="50.5649" lon="3.65359">
        <ele>28.02</ele>
        <time>2017-09-24T07:56:43Z</time>
      </trkpt>
      <trkpt lat="50.56489" lon="3.65359">
        <ele>28.02</ele>
        <time>2017-09-24T07:56:44Z</time>
      </trkpt>
      <trkpt lat="50.56487" lon="3.65359">
        <ele>28.02</ele>
        <time>2017-09-24T07:56:46Z</time>
      </trkpt>
      <trkpt lat="50.56469" lon="3.65358">
        <ele>28.5</ele>
        <time>2017-09-24T07:57:04Z</time>
      </trkpt>
      <trkpt lat="50.56444" lon="3.6536">
        <ele>29.46</ele>
        <time>2017-09-24T07:57:22Z</time>
      </trkpt>
      <trkpt lat="50.56418" lon="3.65361">
        <ele>29.94</ele>
        <time>2017-09-24T07:57:42Z</time>
      </trkpt>
      <trkpt lat="50.56392" lon="3.65355">
        <ele>30.42</ele>
        <time>2017-09-24T07:58:02Z</time>
      </trkpt>
      <trkpt lat="50.5637" lon="3.65346">
        <ele>30.9</ele>
        <time>2017-09-24T07:58:20Z</time>
      </trkpt>
      <trkpt lat="50.56344" lon="3.65334">
        <ele>31.86</ele>
        <time>2017-09-24T07:58:41Z</time>
      </trkpt>
      <trkpt lat="50.56317" lon="3.6532">
        <ele>32.34</ele>
        <time>2017-09-24T07:59:03Z</time>
      </trkpt>
      <trkpt lat="50.563" lon="3.65304">
        <ele>32.82</ele>
        <time>2017-09-24T07:59:18Z</time>
      </trkpt>
      <trkpt lat="50.56275" lon="3.65277">
        <ele>33.3</ele>
        <time>2017-09-24T07:59:41Z</time>
      </trkpt>
      <trkpt lat="50.56255" lon="3.65254">
        <ele>34.26</ele>
        <time>2017-09-24T07:59:59Z</time>
      </trkpt>
      <trkpt lat="50.56228" lon="3.6524">
        <ele>34.26</ele>
        <time>2017-09-24T08:00:20Z</time>
      </trkpt>
      <trkpt lat="50.56191" lon="3.65228">
        <ele>35.23</ele>
        <time>2017-09-24T08:00:48Z</time>
      </trkpt>
      <trkpt lat="50.56166" lon="3.65214">
        <ele>35.23</ele>
        <time>2017-09-24T08:01:08Z</time>
      </trkpt>
      <trkpt lat="50.56139" lon="3.65205">
        <ele>36.19</ele>
        <time>2017-09-24T08:01:30Z</time>
      </trkpt>
      <trkpt lat="50.5612" lon="3.65208">
        <ele>35.71</ele>
        <time>2017-09-24T08:01:47Z</time>
      </trkpt>
      <trkpt lat="50.56091" lon="3.65205">
        <ele>37.15</ele>
        <time>2017-09-24T08:02:09Z</time>
      </trkpt>
      <trkpt lat="50.56074" lon="3.65172">
        <ele>37.15</ele>
        <time>2017-09-24T08:02:29Z</time>
      </trkpt>
      <trkpt lat="50.56057" lon="3.65137">
        <ele>38.11</ele>
        <time>2017-09-24T08:02:51Z</time>
      </trkpt>
      <trkpt lat="50.56043" lon="3.65105">
        <ele>38.11</ele>
        <time>2017-09-24T08:03:11Z</time>
      </trkpt>
      <trkpt lat="50.56052" lon="3.65078">
        <ele>39.07</ele>
        <time>2017-09-24T08:03:27Z</time>
      </trkpt>
      <trkpt lat="50.56068" lon="3.65055">
        <ele>39.07</ele>
        <time>2017-09-24T08:03:45Z</time>
      </trkpt>
      <trkpt lat="50.56091" lon="3.65023">
        <ele>39.55</ele>
        <time>2017-09-24T08:04:09Z</time>
      </trkpt>
      <trkpt lat="50.5611" lon="3.64997">
        <ele>40.03</ele>
        <time>2017-09-24T08:04:28Z</time>
      </trkpt>
      <trkpt lat="50.56133" lon="3.64967">
        <ele>40.51</ele>
        <time>2017-09-24T08:04:51Z</time>
      </trkpt>
      <trkpt lat="50.56156" lon="3.64937">
        <ele>40.99</ele>
        <time>2017-09-24T08:05:14Z</time>
      </trkpt>
      <trkpt lat="50.56181" lon="3.64903">
        <ele>41.47</ele>
        <time>2017-09-24T08:05:39Z</time>
      </trkpt>
      <trkpt lat="50.56205" lon="3.64871">
        <ele>41.95</ele>
        <time>2017-09-24T08:06:03Z</time>
      </trkpt>
      <trkpt lat="50.56227" lon="3.64841">
        <ele>42.44</ele>
        <time>2017-09-24T08:06:27Z</time>
      </trkpt>
      <trkpt lat="50.56248" lon="3.64808">
        <ele>42.44</ele>
        <time>2017-09-24T08:06:50Z</time>
      </trkpt>
      <trkpt lat="50.56265" lon="3.64778">
        <ele>43.4</ele>
        <time>2017-09-24T08:07:11Z</time>
      </trkpt>
      <trkpt lat="50.5628" lon="3.64741">
        <ele>43.4</ele>
        <time>2017-09-24T08:07:33Z</time>
      </trkpt>
      <trkpt lat="50.56281" lon="3.64734">
        <ele>43.4</ele>
        <time>2017-09-24T08:07:37Z</time>
      </trkpt>
      <trkpt lat="50.56281" lon="3.64732">
        <ele>43.88</ele>
        <time>2017-09-24T08:07:38Z</time>
      </trkpt>
      <trkpt lat="50.56281" lon="3.6473">
        <ele>43.88</ele>
        <time>2017-09-24T08:07:39Z</time>
      </trkpt>
      <trkpt lat="50.56282" lon="3.64697">
        <ele>43.88</ele>
        <time>2017-09-24T08:07:58Z</time>
      </trkpt>
      <trkpt lat="50.56268" lon="3.64671">
        <ele>45.8</ele>
        <time>2017-09-24T08:08:16Z</time>
      </trkpt>
      <trkpt lat="50.56267" lon="3.6467">
        <ele>44.36</ele>
        <time>2017-09-24T08:08:17Z</time>
      </trkpt>
      <trkpt lat="50.56258" lon="3.64631">
        <ele>44.84</ele>
        <time>2017-09-24T08:08:38Z</time>
      </trkpt>
      <trkpt lat="50.56251" lon="3.64594">
        <ele>45.32</ele>
        <time>2017-09-24T08:08:59Z</time>
      </trkpt>
      <trkpt lat="50.56244" lon="3.64558">
        <ele>45.32</ele>
        <time>2017-09-24T08:09:18Z</time>
      </trkpt>
      <trkpt lat="50.56236" lon="3.64516">
        <ele>45.8</ele>
        <time>2017-09-24T08:09:41Z</time>
      </trkpt>
      <trkpt lat="50.56228" lon="3.64475">
        <ele>45.8</ele>
        <time>2017-09-24T08:10:02Z</time>
      </trkpt>
      <trkpt lat="50.56221" lon="3.64436">
        <ele>46.28</ele>
        <time>2017-09-24T08:10:23Z</time>
      </trkpt>
      <trkpt lat="50.56213" lon="3.64395">
        <ele>46.76</ele>
        <time>2017-09-24T08:10:45Z</time>
      </trkpt>
      <trkpt lat="50.56205" lon="3.64354">
        <ele>47.24</ele>
        <time>2017-09-24T08:11:07Z</time>
      </trkpt>
      <trkpt lat="50.56196" lon="3.64322">
        <ele>47.72</ele>
        <time>2017-09-24T08:11:25Z</time>
      </trkpt>
      <trkpt lat="50.56184" lon="3.64291">
        <ele>47.72</ele>
        <time>2017-09-24T08:11:43Z</time>
      </trkpt>
      <trkpt lat="50.56171" lon="3.64268">
        <ele>48.2</ele>
        <time>2017-09-24T08:11:58Z</time>
      </trkpt>
      <trkpt lat="50.56156" lon="3.64238">
        <ele>49.16</ele>
        <time>2017-09-24T08:12:17Z</time>
      </trkpt>
      <trkpt lat="50.56141" lon="3.6421">
        <ele>49.16</ele>
        <time>2017-09-24T08:12:36Z</time>
      </trkpt>
      <trkpt lat="50.56126" lon="3.6418">
        <ele>49.65</ele>
        <time>2017-09-24T08:12:56Z</time>
      </trkpt>
      <trkpt lat="50.56112" lon="3.6415">
        <ele>50.13</ele>
        <time>2017-09-24T08:13:16Z</time>
      </trkpt>
      <trkpt lat="50.56099" lon="3.64122">
        <ele>50.13</ele>
        <time>2017-09-24T08:13:34Z</time>
      </trkpt>
      <trkpt lat="50.56086" lon="3.64096">
        <ele>50.61</ele>
        <time>2017-09-24T08:13:51Z</time>
      </trkpt>
      <trkpt lat="50.56067" lon="3.64057">
        <ele>52.05</ele>
        <time>2017-09-24T08:14:18Z</time>
      </trkpt>
      <trkpt lat="50.56053" lon="3.64028">
        <ele>51.09</ele>
        <time>2017-09-24T08:14:37Z</time>
      </trkpt>
      <trkpt lat="50.56039" lon="3.63993">
        <ele>51.09</ele>
        <time>2017-09-24T08:14:57Z</time>
      </trkpt>
      <trkpt lat="50.56027" lon="3.63964">
        <ele>51.57</ele>
        <time>2017-09-24T08:15:15Z</time>
      </trkpt>
      <trkpt lat="50.56013" lon="3.63935">
        <ele>51.57</ele>
        <time>2017-09-24T08:15:32Z</time>
      </trkpt>
      <trkpt lat="50.56004" lon="3.63912">
        <ele>53.01</ele>
        <time>2017-09-24T08:15:46Z</time>
      </trkpt>
      <trkpt lat="50.55989" lon="3.6388">
        <ele>53.01</ele>
        <time>2017-09-24T08:16:06Z</time>
      </trkpt>
      <trkpt lat="50.55973" lon="3.63851">
        <ele>53.01</ele>
        <time>2017-09-24T08:16:25Z</time>
      </trkpt>
      <trkpt lat="50.55958" lon="3.63824">
        <ele>53.49</ele>
        <time>2017-09-24T08:16:44Z</time>
      </trkpt>
      <trkpt lat="50.55941" lon="3.63794">
        <ele>53.49</ele>
        <time>2017-09-24T08:17:03Z</time>
      </trkpt>
      <trkpt lat="50.55924" lon="3.63765">
        <ele>53.97</ele>
        <time>2017-09-24T08:17:22Z</time>
      </trkpt>
      <trkpt lat="50.55909" lon="3.63736">
        <ele>53.97</ele>
        <time>2017-09-24T08:17:40Z</time>
      </trkpt>
      <trkpt lat="50.55897" lon="3.63716">
        <ele>54.45</ele>
        <time>2017-09-24T08:17:54Z</time>
      </trkpt>
      <trkpt lat="50.5588" lon="3.63692">
        <ele>55.41</ele>
        <time>2017-09-24T08:18:12Z</time>
      </trkpt>
      <trkpt lat="50.55864" lon="3.63666">
        <ele>55.41</ele>
        <time>2017-09-24T08:18:29Z</time>
      </trkpt>
      <trkpt lat="50.55852" lon="3.63647">
        <ele>55.41</ele>
        <time>2017-09-24T08:18:42Z</time>
      </trkpt>
      <trkpt lat="50.55843" lon="3.63635">
        <ele>55.41</ele>
        <time>2017-09-24T08:18:51Z</time>
      </trkpt>
      <trkpt lat="50.55842" lon="3.63633">
        <ele>55.41</ele>
        <time>2017-09-24T08:18:52Z</time>
      </trkpt>
      <trkpt lat="50.5584" lon="3.63631">
        <ele>55.41</ele>
        <time>2017-09-24T08:18:54Z</time>
      </trkpt>
      <trkpt lat="50.55839" lon="3.6363">
        <ele>55.41</ele>
        <time>2017-09-24T08:18:55Z</time>
      </trkpt>
      <trkpt lat="50.55822" lon="3.63609">
        <ele>55.89</ele>
        <time>2017-09-24T08:19:12Z</time>
      </trkpt>
      <trkpt lat="50.5581" lon="3.63596">
        <ele>54.45</ele>
        <time>2017-09-24T08:19:23Z</time>
      </trkpt>
      <trkpt lat="50.55808" lon="3.63593">
        <ele>56.37</ele>
        <time>2017-09-24T08:19:25Z</time>
      </trkpt>
      <trkpt lat="50.55807" lon="3.63591">
        <ele>56.37</ele>
        <time>2017-09-24T08:19:26Z</time>
      </trkpt>
      <trkpt lat="50.55806" lon="3.63589">
        <ele>56.37</ele>
        <time>2017-09-24T08:19:27Z</time>
      </trkpt>
      <trkpt lat="50.55805" lon="3.63587">
        <ele>49.16</ele>
        <time>2017-09-24T08:19:28Z</time>
      </trkpt>
      <trkpt lat="50.55804" lon="3.63586">
        <ele>57.34</ele>
        <time>2017-09-24T08:19:29Z</time>
      </trkpt>
      <trkpt lat="50.55802" lon="3.63585">
        <ele>57.34</ele>
        <time>2017-09-24T08:19:30Z</time>
      </trkpt>
      <trkpt lat="50.55801" lon="3.63583">
        <ele>57.34</ele>
        <time>2017-09-24T08:19:31Z</time>
      </trkpt>
      <trkpt lat="50.55798" lon="3.63581">
        <ele>55.41</ele>
        <time>2017-09-24T08:19:34Z</time>
      </trkpt>
      <trkpt lat="50.55797" lon="3.6358">
        <ele>55.41</ele>
        <time>2017-09-24T08:19:35Z</time>
      </trkpt>
      <trkpt lat="50.55796" lon="3.63579">
        <ele>55.41</ele>
        <time>2017-09-24T08:19:36Z</time>
      </trkpt>
      <trkpt lat="50.55794" lon="3.63578">
        <ele>53.97</ele>
        <time>2017-09-24T08:19:37Z</time>
      </trkpt>
      <trkpt lat="50.55793" lon="3.63577">
        <ele>55.41</ele>
        <time>2017-09-24T08:19:38Z</time>
      </trkpt>
      <trkpt lat="50.55792" lon="3.63576">
        <ele>55.41</ele>
        <time>2017-09-24T08:19:39Z</time>
      </trkpt>
      <trkpt lat="50.55769" lon="3.63554">
        <ele>56.37</ele>
        <time>2017-09-24T08:19:58Z</time>
      </trkpt>
      <trkpt lat="50.55745" lon="3.63537">
        <ele>56.86</ele>
        <time>2017-09-24T08:20:19Z</time>
      </trkpt>
      <trkpt lat="50.55723" lon="3.6352">
        <ele>56.37</ele>
        <time>2017-09-24T08:20:36Z</time>
      </trkpt>
      <trkpt lat="50.557" lon="3.63503">
        <ele>56.37</ele>
        <time>2017-09-24T08:20:58Z</time>
      </trkpt>
      <trkpt lat="50.55678" lon="3.63481">
        <ele>56.86</ele>
        <time>2017-09-24T08:21:16Z</time>
      </trkpt>
      <trkpt lat="50.55657" lon="3.63447">
        <ele>58.3</ele>
        <time>2017-09-24T08:21:37Z</time>
      </trkpt>
      <trkpt lat="50.55644" lon="3.63415">
        <ele>57.34</ele>
        <time>2017-09-24T08:21:55Z</time>
      </trkpt>
      <trkpt lat="50.55637" lon="3.63402">
        <ele>57.34</ele>
        <time>2017-09-24T08:22:05Z</time>
      </trkpt>
      <trkpt lat="50.55631" lon="3.63392">
        <ele>57.34</ele>
        <time>2017-09-24T08:22:13Z</time>
      </trkpt>
      <trkpt lat="50.5563" lon="3.63391">
        <ele>57.34</ele>
        <time>2017-09-24T08:22:14Z</time>
      </trkpt>
      <trkpt lat="50.55616" lon="3.63406">
        <ele>57.34</ele>
        <time>2017-09-24T08:22:29Z</time>
      </trkpt>
      <trkpt lat="50.55607" lon="3.63415">
        <ele>57.34</ele>
        <time>2017-09-24T08:22:39Z</time>
      </trkpt>
      <trkpt lat="50.55605" lon="3.63417">
        <ele>57.34</ele>
        <time>2017-09-24T08:22:41Z</time>
      </trkpt>
      <trkpt lat="50.55594" lon="3.63432">
        <ele>56.37</ele>
        <time>2017-09-24T08:22:53Z</time>
      </trkpt>
      <trkpt lat="50.55582" lon="3.63445">
        <ele>56.37</ele>
        <time>2017-09-24T08:23:06Z</time>
      </trkpt>
      <trkpt lat="50.55571" lon="3.6346">
        <ele>56.37</ele>
        <time>2017-09-24T08:23:19Z</time>
      </trkpt>
      <trkpt lat="50.55557" lon="3.63478">
        <ele>56.37</ele>
        <time>2017-09-24T08:23:34Z</time>
      </trkpt>
      <trkpt lat="50.5554" lon="3.635">
        <ele>55.41</ele>
        <time>2017-09-24T08:23:52Z</time>
      </trkpt>
      <trkpt lat="50.55526" lon="3.63518">
        <ele>54.45</ele>
        <time>2017-09-24T08:24:06Z</time>
      </trkpt>
      <trkpt lat="50.55522" lon="3.63521">
        <ele>53.97</ele>
        <time>2017-09-24T08:24:09Z</time>
      </trkpt>
      <trkpt lat="50.55514" lon="3.63537">
        <ele>53.49</ele>
        <time>2017-09-24T08:24:22Z</time>
      </trkpt>
      <trkpt lat="50.55507" lon="3.63545">
        <ele>53.01</ele>
        <time>2017-09-24T08:24:30Z</time>
      </trkpt>
      <trkpt lat="50.55501" lon="3.63561">
        <ele>52.53</ele>
        <time>2017-09-24T08:24:40Z</time>
      </trkpt>
      <trkpt lat="50.55499" lon="3.6358">
        <ele>52.05</ele>
        <time>2017-09-24T08:24:51Z</time>
      </trkpt>
      <trkpt lat="50.55494" lon="3.63591">
        <ele>52.05</ele>
        <time>2017-09-24T08:25:03Z</time>
      </trkpt>
      <trkpt lat="50.55488" lon="3.63598">
        <ele>52.05</ele>
        <time>2017-09-24T08:25:12Z</time>
      </trkpt>
      <trkpt lat="50.55486" lon="3.63601">
        <ele>52.05</ele>
        <time>2017-09-24T08:25:14Z</time>
      </trkpt>
      <trkpt lat="50.55479" lon="3.63618">
        <ele>53.97</ele>
        <time>2017-09-24T08:25:26Z</time>
      </trkpt>
      <trkpt lat="50.55478" lon="3.63619">
        <ele>53.97</ele>
        <time>2017-09-24T08:25:27Z</time>
      </trkpt>
      <trkpt lat="50.55475" lon="3.63629">
        <ele>53.97</ele>
        <time>2017-09-24T08:25:33Z</time>
      </trkpt>
      <trkpt lat="50.55469" lon="3.6365">
        <ele>54.45</ele>
        <time>2017-09-24T08:25:45Z</time>
      </trkpt>
      <trkpt lat="50.5546" lon="3.63671">
        <ele>56.86</ele>
        <time>2017-09-24T08:25:58Z</time>
      </trkpt>
      <trkpt lat="50.55459" lon="3.63675">
        <ele>57.34</ele>
        <time>2017-09-24T08:26:01Z</time>
      </trkpt>
      <trkpt lat="50.55452" lon="3.63693">
        <ele>58.3</ele>
        <time>2017-09-24T08:26:14Z</time>
      </trkpt>
      <trkpt lat="50.5545" lon="3.63698">
        <ele>58.3</ele>
        <time>2017-09-24T08:26:18Z</time>
      </trkpt>
      <trkpt lat="50.55439" lon="3.63721">
        <ele>60.7</ele>
        <time>2017-09-24T08:26:34Z</time>
      </trkpt>
      <trkpt lat="50.5543" lon="3.63744">
        <ele>61.18</ele>
        <time>2017-09-24T08:26:48Z</time>
      </trkpt>
      <trkpt lat="50.55426" lon="3.63751">
        <ele>61.66</ele>
        <time>2017-09-24T08:26:53Z</time>
      </trkpt>
      <trkpt lat="50.55418" lon="3.63772">
        <ele>62.14</ele>
        <time>2017-09-24T08:27:07Z</time>
      </trkpt>
      <trkpt lat="50.55414" lon="3.63778">
        <ele>62.14</ele>
        <time>2017-09-24T08:27:12Z</time>
      </trkpt>
      <trkpt lat="50.55408" lon="3.63781">
        <ele>63.1</ele>
        <time>2017-09-24T08:27:18Z</time>
      </trkpt>
      <trkpt lat="50.55394" lon="3.63773">
        <ele>63.1</ele>
        <time>2017-09-24T08:27:31Z</time>
      </trkpt>
      <trkpt lat="50.55379" lon="3.63765">
        <ele>63.1</ele>
        <time>2017-09-24T08:27:43Z</time>
      </trkpt>
      <trkpt lat="50.55366" lon="3.63762">
        <ele>63.1</ele>
        <time>2017-09-24T08:27:54Z</time>
      </trkpt>
      <trkpt lat="50.55344" lon="3.63744">
        <ele>63.1</ele>
        <time>2017-09-24T08:28:11Z</time>
      </trkpt>
      <trkpt lat="50.55322" lon="3.63731">
        <ele>63.1</ele>
        <time>2017-09-24T08:28:26Z</time>
      </trkpt>
      <trkpt lat="50.55312" lon="3.63724">
        <ele>62.14</ele>
        <time>2017-09-24T08:28:33Z</time>
      </trkpt>
      <trkpt lat="50.55292" lon="3.63715">
        <ele>61.66</ele>
        <time>2017-09-24T08:28:49Z</time>
      </trkpt>
      <trkpt lat="50.55271" lon="3.63703">
        <ele>62.14</ele>
        <time>2017-09-24T08:29:05Z</time>
      </trkpt>
      <trkpt lat="50.55255" lon="3.63692">
        <ele>61.66</ele>
        <time>2017-09-24T08:29:17Z</time>
      </trkpt>
      <trkpt lat="50.55254" lon="3.63691">
        <ele>61.66</ele>
        <time>2017-09-24T08:29:18Z</time>
      </trkpt>
      <trkpt lat="50.55252" lon="3.6369">
        <ele>61.66</ele>
        <time>2017-09-24T08:29:19Z</time>
      </trkpt>
      <trkpt lat="50.55251" lon="3.63688">
        <ele>61.66</ele>
        <time>2017-09-24T08:29:20Z</time>
      </trkpt>
      <trkpt lat="50.55249" lon="3.63687">
        <ele>61.66</ele>
        <time>2017-09-24T08:29:21Z</time>
      </trkpt>
      <trkpt lat="50.55248" lon="3.63686">
        <ele>61.66</ele>
        <time>2017-09-24T08:29:22Z</time>
      </trkpt>
      <trkpt lat="50.55246" lon="3.63686">
        <ele>61.66</ele>
        <time>2017-09-24T08:29:23Z</time>
      </trkpt>
      <trkpt lat="50.55245" lon="3.63687">
        <ele>61.66</ele>
        <time>2017-09-24T08:29:24Z</time>
      </trkpt>
      <trkpt lat="50.55232" lon="3.63675">
        <ele>61.18</ele>
        <time>2017-09-24T08:29:37Z</time>
      </trkpt>
      <trkpt lat="50.55225" lon="3.6367">
        <ele>61.66</ele>
        <time>2017-09-24T08:29:42Z</time>
      </trkpt>
      <trkpt lat="50.55224" lon="3.63672">
        <ele>61.66</ele>
        <time>2017-09-24T08:29:43Z</time>
      </trkpt>
      <trkpt lat="50.55221" lon="3.63673">
        <ele>61.18</ele>
        <time>2017-09-24T08:29:46Z</time>
      </trkpt>
      <trkpt lat="50.5522" lon="3.63673">
        <ele>61.18</ele>
        <time>2017-09-24T08:29:47Z</time>
      </trkpt>
      <trkpt lat="50.55218" lon="3.63672">
        <ele>61.18</ele>
        <time>2017-09-24T08:29:48Z</time>
      </trkpt>
      <trkpt lat="50.55214" lon="3.63671">
        <ele>55.89</ele>
        <time>2017-09-24T08:29:51Z</time>
      </trkpt>
      <trkpt lat="50.55213" lon="3.63671">
        <ele>61.18</ele>
        <time>2017-09-24T08:29:52Z</time>
      </trkpt>
      <trkpt lat="50.55211" lon="3.6367">
        <ele>61.66</ele>
        <time>2017-09-24T08:29:54Z</time>
      </trkpt>
      <trkpt lat="50.55193" lon="3.63663">
        <ele>61.66</ele>
        <time>2017-09-24T08:30:06Z</time>
      </trkpt>
      <trkpt lat="50.55189" lon="3.63661">
        <ele>60.7</ele>
        <time>2017-09-24T08:30:08Z</time>
      </trkpt>
      <trkpt lat="50.55178" lon="3.63653">
        <ele>60.22</ele>
        <time>2017-09-24T08:30:17Z</time>
      </trkpt>
      <trkpt lat="50.55177" lon="3.63652">
        <ele>60.22</ele>
        <time>2017-09-24T08:30:18Z</time>
      </trkpt>
      <trkpt lat="50.55175" lon="3.63651">
        <ele>60.22</ele>
        <time>2017-09-24T08:30:19Z</time>
      </trkpt>
      <trkpt lat="50.55159" lon="3.63634">
        <ele>59.74</ele>
        <time>2017-09-24T08:30:35Z</time>
      </trkpt>
      <trkpt lat="50.55146" lon="3.63611">
        <ele>59.26</ele>
        <time>2017-09-24T08:30:52Z</time>
      </trkpt>
      <trkpt lat="50.55136" lon="3.63584">
        <ele>58.78</ele>
        <time>2017-09-24T08:31:06Z</time>
      </trkpt>
      <trkpt lat="50.55123" lon="3.63553">
        <ele>58.78</ele>
        <time>2017-09-24T08:31:23Z</time>
      </trkpt>
      <trkpt lat="50.55112" lon="3.63522">
        <ele>59.26</ele>
        <time>2017-09-24T08:31:39Z</time>
      </trkpt>
      <trkpt lat="50.55109" lon="3.63517">
        <ele>58.3</ele>
        <time>2017-09-24T08:31:43Z</time>
      </trkpt>
      <trkpt lat="50.55098" lon="3.63492">
        <ele>58.3</ele>
        <time>2017-09-24T08:31:58Z</time>
      </trkpt>
      <trkpt lat="50.55085" lon="3.63464">
        <ele>57.82</ele>
        <time>2017-09-24T08:32:15Z</time>
      </trkpt>
      <trkpt lat="50.55075" lon="3.6344">
        <ele>58.3</ele>
        <time>2017-09-24T08:32:29Z</time>
      </trkpt>
      <trkpt lat="50.55068" lon="3.6341">
        <ele>56.86</ele>
        <time>2017-09-24T08:32:45Z</time>
      </trkpt>
      <trkpt lat="50.55064" lon="3.63381">
        <ele>57.34</ele>
        <time>2017-09-24T08:33:00Z</time>
      </trkpt>
      <trkpt lat="50.55062" lon="3.63363">
        <ele>55.89</ele>
        <time>2017-09-24T08:33:09Z</time>
      </trkpt>
      <trkpt lat="50.55058" lon="3.63338">
        <ele>56.86</ele>
        <time>2017-09-24T08:33:24Z</time>
      </trkpt>
      <trkpt lat="50.55054" lon="3.63309">
        <ele>55.41</ele>
        <time>2017-09-24T08:33:40Z</time>
      </trkpt>
      <trkpt lat="50.55052" lon="3.63296">
        <ele>55.89</ele>
        <time>2017-09-24T08:33:46Z</time>
      </trkpt>
      <trkpt lat="50.55051" lon="3.63291">
        <ele>53.97</ele>
        <time>2017-09-24T08:33:49Z</time>
      </trkpt>
      <trkpt lat="50.55051" lon="3.63288">
        <ele>55.41</ele>
        <time>2017-09-24T08:33:51Z</time>
      </trkpt>
      <trkpt lat="50.55048" lon="3.6326">
        <ele>55.41</ele>
        <time>2017-09-24T08:34:05Z</time>
      </trkpt>
      <trkpt lat="50.55046" lon="3.63235">
        <ele>54.45</ele>
        <time>2017-09-24T08:34:18Z</time>
      </trkpt>
      <trkpt lat="50.55043" lon="3.63208">
        <ele>51.57</ele>
        <time>2017-09-24T08:34:33Z</time>
      </trkpt>
      <trkpt lat="50.55042" lon="3.63202">
        <ele>53.97</ele>
        <time>2017-09-24T08:34:36Z</time>
      </trkpt>
      <trkpt lat="50.55039" lon="3.63172">
        <ele>53.97</ele>
        <time>2017-09-24T08:34:51Z</time>
      </trkpt>
      <trkpt lat="50.55038" lon="3.63167">
        <ele>52.05</ele>
        <time>2017-09-24T08:34:54Z</time>
      </trkpt>
      <trkpt lat="50.55037" lon="3.63159">
        <ele>53.49</ele>
        <time>2017-09-24T08:34:58Z</time>
      </trkpt>
      <trkpt lat="50.55033" lon="3.63137">
        <ele>53.49</ele>
        <time>2017-09-24T08:35:10Z</time>
      </trkpt>
      <trkpt lat="50.55028" lon="3.63112">
        <ele>53.49</ele>
        <time>2017-09-24T08:35:25Z</time>
      </trkpt>
      <trkpt lat="50.55024" lon="3.63094">
        <ele>53.49</ele>
        <time>2017-09-24T08:35:34Z</time>
      </trkpt>
      <trkpt lat="50.55024" lon="3.63092">
        <ele>53.49</ele>
        <time>2017-09-24T08:35:35Z</time>
      </trkpt>
      <trkpt lat="50.55023" lon="3.6309">
        <ele>53.49</ele>
        <time>2017-09-24T08:35:36Z</time>
      </trkpt>
      <trkpt lat="50.5502" lon="3.63083">
        <ele>52.05</ele>
        <time>2017-09-24T08:35:41Z</time>
      </trkpt>
      <trkpt lat="50.55019" lon="3.63077">
        <ele>52.05</ele>
        <time>2017-09-24T08:35:44Z</time>
      </trkpt>
      <trkpt lat="50.55019" lon="3.63075">
        <ele>52.05</ele>
        <time>2017-09-24T08:35:45Z</time>
      </trkpt>
      <trkpt lat="50.55018" lon="3.63073">
        <ele>52.05</ele>
        <time>2017-09-24T08:35:46Z</time>
      </trkpt>
      <trkpt lat="50.55018" lon="3.63071">
        <ele>52.05</ele>
        <time>2017-09-24T08:35:47Z</time>
      </trkpt>
      <trkpt lat="50.55011" lon="3.63049">
        <ele>51.09</ele>
        <time>2017-09-24T08:36:01Z</time>
      </trkpt>
      <trkpt lat="50.55006" lon="3.63033">
        <ele>50.61</ele>
        <time>2017-09-24T08:36:12Z</time>
      </trkpt>
      <trkpt lat="50.55" lon="3.63019">
        <ele>50.13</ele>
        <time>2017-09-24T08:36:21Z</time>
      </trkpt>
      <trkpt lat="50.54999" lon="3.63018">
        <ele>50.13</ele>
        <time>2017-09-24T08:36:22Z</time>
      </trkpt>
      <trkpt lat="50.54994" lon="3.63004">
        <ele>49.16</ele>
        <time>2017-09-24T08:36:33Z</time>
      </trkpt>
      <trkpt lat="50.54988" lon="3.62981">
        <ele>47.24</ele>
        <time>2017-09-24T08:36:48Z</time>
      </trkpt>
      <trkpt lat="50.54987" lon="3.6298">
        <ele>47.24</ele>
        <time>2017-09-24T08:36:49Z</time>
      </trkpt>
      <trkpt lat="50.54987" lon="3.62976">
        <ele>47.24</ele>
        <time>2017-09-24T08:36:51Z</time>
      </trkpt>
      <trkpt lat="50.54986" lon="3.62974">
        <ele>47.24</ele>
        <time>2017-09-24T08:36:52Z</time>
      </trkpt>
      <trkpt lat="50.54986" lon="3.62973">
        <ele>47.24</ele>
        <time>2017-09-24T08:36:53Z</time>
      </trkpt>
      <trkpt lat="50.54986" lon="3.62971">
        <ele>47.24</ele>
        <time>2017-09-24T08:36:54Z</time>
      </trkpt>
      <trkpt lat="50.54986" lon="3.62969">
        <ele>47.24</ele>
        <time>2017-09-24T08:36:55Z</time>
      </trkpt>
      <trkpt lat="50.54985" lon="3.62968">
        <ele>47.24</ele>
        <time>2017-09-24T08:36:56Z</time>
      </trkpt>
      <trkpt lat="50.54985" lon="3.62966">
        <ele>46.76</ele>
        <time>2017-09-24T08:36:57Z</time>
      </trkpt>
      <trkpt lat="50.54984" lon="3.62962">
        <ele>46.76</ele>
        <time>2017-09-24T08:36:59Z</time>
      </trkpt>
      <trkpt lat="50.54984" lon="3.6296">
        <ele>46.76</ele>
        <time>2017-09-24T08:37:00Z</time>
      </trkpt>
      <trkpt lat="50.54984" lon="3.62957">
        <ele>45.8</ele>
        <time>2017-09-24T08:37:02Z</time>
      </trkpt>
      <trkpt lat="50.54979" lon="3.62936">
        <ele>45.8</ele>
        <time>2017-09-24T08:37:15Z</time>
      </trkpt>
      <trkpt lat="50.54978" lon="3.62934">
        <ele>45.8</ele>
        <time>2017-09-24T08:37:17Z</time>
      </trkpt>
      <trkpt lat="50.54977" lon="3.62933">
        <ele>45.32</ele>
        <time>2017-09-24T08:37:18Z</time>
      </trkpt>
      <trkpt lat="50.54976" lon="3.62932">
        <ele>45.32</ele>
        <time>2017-09-24T08:37:19Z</time>
      </trkpt>
      <trkpt lat="50.54974" lon="3.62925">
        <ele>44.36</ele>
        <time>2017-09-24T08:37:23Z</time>
      </trkpt>
      <trkpt lat="50.54972" lon="3.62918">
        <ele>44.84</ele>
        <time>2017-09-24T08:37:29Z</time>
      </trkpt>
      <trkpt lat="50.54972" lon="3.62916">
        <ele>44.84</ele>
        <time>2017-09-24T08:37:30Z</time>
      </trkpt>
      <trkpt lat="50.54971" lon="3.62902">
        <ele>44.84</ele>
        <time>2017-09-24T08:37:38Z</time>
      </trkpt>
      <trkpt lat="50.5497" lon="3.62899">
        <ele>44.84</ele>
        <time>2017-09-24T08:37:39Z</time>
      </trkpt>
      <trkpt lat="50.54968" lon="3.62889">
        <ele>45.8</ele>
        <time>2017-09-24T08:37:43Z</time>
      </trkpt>
      <trkpt lat="50.54967" lon="3.62887">
        <ele>45.8</ele>
        <time>2017-09-24T08:37:44Z</time>
      </trkpt>
      <trkpt lat="50.54967" lon="3.62884">
        <ele>45.8</ele>
        <time>2017-09-24T08:37:45Z</time>
      </trkpt>
      <trkpt lat="50.54967" lon="3.62881">
        <ele>45.8</ele>
        <time>2017-09-24T08:37:46Z</time>
      </trkpt>
      <trkpt lat="50.54967" lon="3.62879">
        <ele>45.8</ele>
        <time>2017-09-24T08:37:47Z</time>
      </trkpt>
      <trkpt lat="50.54967" lon="3.62877">
        <ele>45.8</ele>
        <time>2017-09-24T08:37:48Z</time>
      </trkpt>
      <trkpt lat="50.54969" lon="3.62876">
        <ele>45.8</ele>
        <time>2017-09-24T08:37:49Z</time>
      </trkpt>
      <trkpt lat="50.54971" lon="3.62874">
        <ele>46.76</ele>
        <time>2017-09-24T08:37:51Z</time>
      </trkpt>
      <trkpt lat="50.54989" lon="3.62872">
        <ele>46.76</ele>
        <time>2017-09-24T08:38:07Z</time>
      </trkpt>
      <trkpt lat="50.55009" lon="3.62866">
        <ele>46.76</ele>
        <time>2017-09-24T08:38:22Z</time>
      </trkpt>
      <trkpt lat="50.5501" lon="3.62866">
        <ele>46.76</ele>
        <time>2017-09-24T08:38:23Z</time>
      </trkpt>
      <trkpt lat="50.55012" lon="3.62866">
        <ele>47.24</ele>
        <time>2017-09-24T08:38:25Z</time>
      </trkpt>
      <trkpt lat="50.5503" lon="3.62863">
        <ele>48.2</ele>
        <time>2017-09-24T08:38:41Z</time>
      </trkpt>
      <trkpt lat="50.5505" lon="3.62859">
        <ele>48.2</ele>
        <time>2017-09-24T08:39:00Z</time>
      </trkpt>
      <trkpt lat="50.55057" lon="3.62857">
        <ele>48.68</ele>
        <time>2017-09-24T08:39:05Z</time>
      </trkpt>
      <trkpt lat="50.55071" lon="3.62854">
        <ele>49.16</ele>
        <time>2017-09-24T08:39:17Z</time>
      </trkpt>
      <trkpt lat="50.55089" lon="3.62846">
        <ele>49.65</ele>
        <time>2017-09-24T08:39:31Z</time>
      </trkpt>
      <trkpt lat="50.55107" lon="3.62835">
        <ele>50.61</ele>
        <time>2017-09-24T08:39:43Z</time>
      </trkpt>
      <trkpt lat="50.55121" lon="3.62799">
        <ele>50.61</ele>
        <time>2017-09-24T08:39:57Z</time>
      </trkpt>
      <trkpt lat="50.5512" lon="3.62789">
        <ele>51.57</ele>
        <time>2017-09-24T08:40:03Z</time>
      </trkpt>
      <trkpt lat="50.55117" lon="3.6279">
        <ele>52.05</ele>
        <time>2017-09-24T08:40:16Z</time>
      </trkpt>
      <trkpt lat="50.55115" lon="3.62774">
        <ele>52.05</ele>
        <time>2017-09-24T08:40:22Z</time>
      </trkpt>
      <trkpt lat="50.55111" lon="3.62746">
        <ele>52.53</ele>
        <time>2017-09-24T08:40:36Z</time>
      </trkpt>
      <trkpt lat="50.55104" lon="3.62716">
        <ele>53.01</ele>
        <time>2017-09-24T08:40:50Z</time>
      </trkpt>
      <trkpt lat="50.5509" lon="3.62688">
        <ele>53.49</ele>
        <time>2017-09-24T08:41:08Z</time>
      </trkpt>
      <trkpt lat="50.55078" lon="3.62666">
        <ele>52.53</ele>
        <time>2017-09-24T08:41:23Z</time>
      </trkpt>
      <trkpt lat="50.55067" lon="3.62653">
        <ele>50.13</ele>
        <time>2017-09-24T08:41:33Z</time>
      </trkpt>
      <trkpt lat="50.55054" lon="3.62642">
        <ele>50.61</ele>
        <time>2017-09-24T08:41:45Z</time>
      </trkpt>
      <trkpt lat="50.55039" lon="3.62619">
        <ele>49.16</ele>
        <time>2017-09-24T08:42:00Z</time>
      </trkpt>
      <trkpt lat="50.55027" lon="3.62597">
        <ele>49.16</ele>
        <time>2017-09-24T08:42:14Z</time>
      </trkpt>
      <trkpt lat="50.55012" lon="3.62566">
        <ele>48.2</ele>
        <time>2017-09-24T08:42:32Z</time>
      </trkpt>
      <trkpt lat="50.55001" lon="3.62544">
        <ele>48.2</ele>
        <time>2017-09-24T08:42:48Z</time>
      </trkpt>
      <trkpt lat="50.54997" lon="3.6254">
        <ele>48.2</ele>
        <time>2017-09-24T08:43:03Z</time>
      </trkpt>
      <trkpt lat="50.54997" lon="3.6254">
        <ele>48.2</ele>
        <time>2017-09-24T08:43:20Z</time>
      </trkpt>
      <trkpt lat="50.54997" lon="3.62542">
        <ele>48.68</ele>
        <time>2017-09-24T08:43:34Z</time>
      </trkpt>
      <trkpt lat="50.54998" lon="3.62543">
        <ele>48.68</ele>
        <time>2017-09-24T08:43:49Z</time>
      </trkpt>
      <trkpt lat="50.54998" lon="3.62543">
        <ele>48.68</ele>
        <time>2017-09-24T08:44:06Z</time>
      </trkpt>
      <trkpt lat="50.54998" lon="3.62543">
        <ele>48.68</ele>
        <time>2017-09-24T08:44:19Z</time>
      </trkpt>
      <trkpt lat="50.55" lon="3.62543">
        <ele>48.68</ele>
        <time>2017-09-24T08:44:32Z</time>
      </trkpt>
      <trkpt lat="50.54999" lon="3.62542">
        <ele>48.68</ele>
        <time>2017-09-24T08:44:50Z</time>
      </trkpt>
      <trkpt lat="50.54999" lon="3.62543">
        <ele>48.68</ele>
        <time>2017-09-24T08:45:09Z</time>
      </trkpt>
      <trkpt lat="50.54999" lon="3.62541">
        <ele>48.68</ele>
        <time>2017-09-24T08:45:31Z</time>
      </trkpt>
      <trkpt lat="50.54998" lon="3.62542">
        <ele>48.68</ele>
        <time>2017-09-24T08:46:04Z</time>
      </trkpt>
      <trkpt lat="50.54998" lon="3.62542">
        <ele>49.16</ele>
        <time>2017-09-24T08:46:28Z</time>
      </trkpt>
      <trkpt lat="50.54999" lon="3.62543">
        <ele>49.16</ele>
        <time>2017-09-24T08:46:45Z</time>
      </trkpt>
      <trkpt lat="50.54999" lon="3.62542">
        <ele>49.16</ele>
        <time>2017-09-24T08:47:00Z</time>
      </trkpt>
      <trkpt lat="50.5499" lon="3.62523">
        <ele>49.16</ele>
        <time>2017-09-24T08:47:15Z</time>
      </trkpt>
      <trkpt lat="50.54987" lon="3.62515">
        <ele>47.72</ele>
        <time>2017-09-24T08:47:20Z</time>
      </trkpt>
      <trkpt lat="50.54974" lon="3.62488">
        <ele>47.24</ele>
        <time>2017-09-24T08:47:37Z</time>
      </trkpt>
      <trkpt lat="50.54973" lon="3.62487">
        <ele>47.72</ele>
        <time>2017-09-24T08:47:38Z</time>
      </trkpt>
      <trkpt lat="50.54963" lon="3.6246">
        <ele>47.72</ele>
        <time>2017-09-24T08:47:55Z</time>
      </trkpt>
      <trkpt lat="50.54958" lon="3.62441">
        <ele>47.72</ele>
        <time>2017-09-24T08:48:06Z</time>
      </trkpt>
      <trkpt lat="50.54949" lon="3.62419">
        <ele>47.72</ele>
        <time>2017-09-24T08:48:19Z</time>
      </trkpt>
      <trkpt lat="50.54939" lon="3.624">
        <ele>49.16</ele>
        <time>2017-09-24T08:48:31Z</time>
      </trkpt>
      <trkpt lat="50.5493" lon="3.62384">
        <ele>50.13</ele>
        <time>2017-09-24T08:48:41Z</time>
      </trkpt>
      <trkpt lat="50.54925" lon="3.62378">
        <ele>51.09</ele>
        <time>2017-09-24T08:48:46Z</time>
      </trkpt>
      <trkpt lat="50.54902" lon="3.62374">
        <ele>53.01</ele>
        <time>2017-09-24T08:49:01Z</time>
      </trkpt>
      <trkpt lat="50.54882" lon="3.62382">
        <ele>53.97</ele>
        <time>2017-09-24T08:49:16Z</time>
      </trkpt>
      <trkpt lat="50.54867" lon="3.62407">
        <ele>53.97</ele>
        <time>2017-09-24T08:49:32Z</time>
      </trkpt>
      <trkpt lat="50.54845" lon="3.62414">
        <ele>53.97</ele>
        <time>2017-09-24T08:49:48Z</time>
      </trkpt>
      <trkpt lat="50.54826" lon="3.62408">
        <ele>55.41</ele>
        <time>2017-09-24T08:50:04Z</time>
      </trkpt>
      <trkpt lat="50.54825" lon="3.62403">
        <ele>55.89</ele>
        <time>2017-09-24T08:50:09Z</time>
      </trkpt>
      <trkpt lat="50.54829" lon="3.62404">
        <ele>56.37</ele>
        <time>2017-09-24T08:50:13Z</time>
      </trkpt>
      <trkpt lat="50.54835" lon="3.62408">
        <ele>56.37</ele>
        <time>2017-09-24T08:50:19Z</time>
      </trkpt>
      <trkpt lat="50.54838" lon="3.62407">
        <ele>56.86</ele>
        <time>2017-09-24T08:50:22Z</time>
      </trkpt>
      <trkpt lat="50.54853" lon="3.62405">
        <ele>57.34</ele>
        <time>2017-09-24T08:50:35Z</time>
      </trkpt>
      <trkpt lat="50.5486" lon="3.624">
        <ele>57.34</ele>
        <time>2017-09-24T08:50:41Z</time>
      </trkpt>
      <trkpt lat="50.54867" lon="3.62387">
        <ele>57.34</ele>
        <time>2017-09-24T08:50:49Z</time>
      </trkpt>
      <trkpt lat="50.54871" lon="3.62377">
        <ele>57.82</ele>
        <time>2017-09-24T08:50:56Z</time>
      </trkpt>
      <trkpt lat="50.5488" lon="3.62353">
        <ele>57.82</ele>
        <time>2017-09-24T08:51:11Z</time>
      </trkpt>
      <trkpt lat="50.54892" lon="3.62327">
        <ele>58.3</ele>
        <time>2017-09-24T08:51:27Z</time>
      </trkpt>
      <trkpt lat="50.54893" lon="3.62326">
        <ele>58.3</ele>
        <time>2017-09-24T08:51:28Z</time>
      </trkpt>
      <trkpt lat="50.54904" lon="3.62304">
        <ele>58.78</ele>
        <time>2017-09-24T08:51:43Z</time>
      </trkpt>
      <trkpt lat="50.54906" lon="3.62297">
        <ele>58.78</ele>
        <time>2017-09-24T08:51:47Z</time>
      </trkpt>
      <trkpt lat="50.54909" lon="3.62288">
        <ele>59.26</ele>
        <time>2017-09-24T08:51:54Z</time>
      </trkpt>
      <trkpt lat="50.54916" lon="3.62267">
        <ele>59.74</ele>
        <time>2017-09-24T08:52:07Z</time>
      </trkpt>
      <trkpt lat="50.54915" lon="3.6225">
        <ele>60.22</ele>
        <time>2017-09-24T08:52:20Z</time>
      </trkpt>
      <trkpt lat="50.54912" lon="3.62226">
        <ele>60.22</ele>
        <time>2017-09-24T08:52:34Z</time>
      </trkpt>
      <trkpt lat="50.54906" lon="3.62193">
        <ele>60.22</ele>
        <time>2017-09-24T08:52:53Z</time>
      </trkpt>
      <trkpt lat="50.54906" lon="3.62191">
        <ele>60.22</ele>
        <time>2017-09-24T08:52:54Z</time>
      </trkpt>
      <trkpt lat="50.54905" lon="3.62187">
        <ele>60.22</ele>
        <time>2017-09-24T08:52:58Z</time>
      </trkpt>
      <trkpt lat="50.54903" lon="3.62175">
        <ele>60.22</ele>
        <time>2017-09-24T08:53:04Z</time>
      </trkpt>
      <trkpt lat="50.549" lon="3.62143">
        <ele>60.22</ele>
        <time>2017-09-24T08:53:21Z</time>
      </trkpt>
      <trkpt lat="50.549" lon="3.62139">
        <ele>60.22</ele>
        <time>2017-09-24T08:53:23Z</time>
      </trkpt>
      <trkpt lat="50.54896" lon="3.62108">
        <ele>60.22</ele>
        <time>2017-09-24T08:53:37Z</time>
      </trkpt>
      <trkpt lat="50.54893" lon="3.62082">
        <ele>60.7</ele>
        <time>2017-09-24T08:53:52Z</time>
      </trkpt>
      <trkpt lat="50.5489" lon="3.62068">
        <ele>60.7</ele>
        <time>2017-09-24T08:54:01Z</time>
      </trkpt>
      <trkpt lat="50.54888" lon="3.62042">
        <ele>60.7</ele>
        <time>2017-09-24T08:54:16Z</time>
      </trkpt>
      <trkpt lat="50.54886" lon="3.62033">
        <ele>60.7</ele>
        <time>2017-09-24T08:54:20Z</time>
      </trkpt>
      <trkpt lat="50.54885" lon="3.62026">
        <ele>60.7</ele>
        <time>2017-09-24T08:54:24Z</time>
      </trkpt>
      <trkpt lat="50.54884" lon="3.62013">
        <ele>61.66</ele>
        <time>2017-09-24T08:54:31Z</time>
      </trkpt>
      <trkpt lat="50.54884" lon="3.62003">
        <ele>61.66</ele>
        <time>2017-09-24T08:54:36Z</time>
      </trkpt>
      <trkpt lat="50.54892" lon="3.61987">
        <ele>61.66</ele>
        <time>2017-09-24T08:54:50Z</time>
      </trkpt>
      <trkpt lat="50.54913" lon="3.6197">
        <ele>61.66</ele>
        <time>2017-09-24T08:55:03Z</time>
      </trkpt>
      <trkpt lat="50.54928" lon="3.61962">
        <ele>61.66</ele>
        <time>2017-09-24T08:55:18Z</time>
      </trkpt>
      <trkpt lat="50.54944" lon="3.61952">
        <ele>61.66</ele>
        <time>2017-09-24T08:55:32Z</time>
      </trkpt>
      <trkpt lat="50.54962" lon="3.61944">
        <ele>61.66</ele>
        <time>2017-09-24T08:55:48Z</time>
      </trkpt>
      <trkpt lat="50.54985" lon="3.61935">
        <ele>61.66</ele>
        <time>2017-09-24T08:56:04Z</time>
      </trkpt>
      <trkpt lat="50.55007" lon="3.61924">
        <ele>61.66</ele>
        <time>2017-09-24T08:56:21Z</time>
      </trkpt>
      <trkpt lat="50.55022" lon="3.61918">
        <ele>61.66</ele>
        <time>2017-09-24T08:56:34Z</time>
      </trkpt>
      <trkpt lat="50.55025" lon="3.61916">
        <ele>61.66</ele>
        <time>2017-09-24T08:56:40Z</time>
      </trkpt>
      <trkpt lat="50.55028" lon="3.61915">
        <ele>61.66</ele>
        <time>2017-09-24T08:56:43Z</time>
      </trkpt>
      <trkpt lat="50.55029" lon="3.61915">
        <ele>61.66</ele>
        <time>2017-09-24T08:56:44Z</time>
      </trkpt>
      <trkpt lat="50.55033" lon="3.61914">
        <ele>61.66</ele>
        <time>2017-09-24T08:56:48Z</time>
      </trkpt>
      <trkpt lat="50.55034" lon="3.61914">
        <ele>61.66</ele>
        <time>2017-09-24T08:56:49Z</time>
      </trkpt>
      <trkpt lat="50.55052" lon="3.61909">
        <ele>62.14</ele>
        <time>2017-09-24T08:57:04Z</time>
      </trkpt>
      <trkpt lat="50.55062" lon="3.61906">
        <ele>62.14</ele>
        <time>2017-09-24T08:57:13Z</time>
      </trkpt>
      <trkpt lat="50.55077" lon="3.61901">
        <ele>62.14</ele>
        <time>2017-09-24T08:57:27Z</time>
      </trkpt>
      <trkpt lat="50.55079" lon="3.61901">
        <ele>62.14</ele>
        <time>2017-09-24T08:57:29Z</time>
      </trkpt>
      <trkpt lat="50.55097" lon="3.61892">
        <ele>62.62</ele>
        <time>2017-09-24T08:57:45Z</time>
      </trkpt>
      <trkpt lat="50.55115" lon="3.61881">
        <ele>62.62</ele>
        <time>2017-09-24T08:58:01Z</time>
      </trkpt>
      <trkpt lat="50.55132" lon="3.61868">
        <ele>63.1</ele>
        <time>2017-09-24T08:58:15Z</time>
      </trkpt>
      <trkpt lat="50.55137" lon="3.61863">
        <ele>63.1</ele>
        <time>2017-09-24T08:58:20Z</time>
      </trkpt>
      <trkpt lat="50.55154" lon="3.6185">
        <ele>63.1</ele>
        <time>2017-09-24T08:58:35Z</time>
      </trkpt>
      <trkpt lat="50.55171" lon="3.61838">
        <ele>63.58</ele>
        <time>2017-09-24T08:58:53Z</time>
      </trkpt>
      <trkpt lat="50.55172" lon="3.61837">
        <ele>63.58</ele>
        <time>2017-09-24T08:58:54Z</time>
      </trkpt>
      <trkpt lat="50.55174" lon="3.61836">
        <ele>63.58</ele>
        <time>2017-09-24T08:58:55Z</time>
      </trkpt>
      <trkpt lat="50.55182" lon="3.61831">
        <ele>63.58</ele>
        <time>2017-09-24T08:59:03Z</time>
      </trkpt>
      <trkpt lat="50.55183" lon="3.6183">
        <ele>63.58</ele>
        <time>2017-09-24T08:59:04Z</time>
      </trkpt>
      <trkpt lat="50.55184" lon="3.61829">
        <ele>63.58</ele>
        <time>2017-09-24T08:59:05Z</time>
      </trkpt>
      <trkpt lat="50.55199" lon="3.6182">
        <ele>64.07</ele>
        <time>2017-09-24T08:59:18Z</time>
      </trkpt>
      <trkpt lat="50.55209" lon="3.61829">
        <ele>64.55</ele>
        <time>2017-09-24T08:59:31Z</time>
      </trkpt>
      <trkpt lat="50.55218" lon="3.61857">
        <ele>64.55</ele>
        <time>2017-09-24T08:59:45Z</time>
      </trkpt>
      <trkpt lat="50.55222" lon="3.61874">
        <ele>64.55</ele>
        <time>2017-09-24T08:59:58Z</time>
      </trkpt>
      <trkpt lat="50.55227" lon="3.61892">
        <ele>64.55</ele>
        <time>2017-09-24T09:00:13Z</time>
      </trkpt>
      <trkpt lat="50.55231" lon="3.61918">
        <ele>64.55</ele>
        <time>2017-09-24T09:00:28Z</time>
      </trkpt>
      <trkpt lat="50.55233" lon="3.61922">
        <ele>63.1</ele>
        <time>2017-09-24T09:00:31Z</time>
      </trkpt>
      <trkpt lat="50.55235" lon="3.61938">
        <ele>63.1</ele>
        <time>2017-09-24T09:00:40Z</time>
      </trkpt>
      <trkpt lat="50.55235" lon="3.6194">
        <ele>63.1</ele>
        <time>2017-09-24T09:00:41Z</time>
      </trkpt>
      <trkpt lat="50.55235" lon="3.61942">
        <ele>63.1</ele>
        <time>2017-09-24T09:00:42Z</time>
      </trkpt>
      <trkpt lat="50.55244" lon="3.6197">
        <ele>63.1</ele>
        <time>2017-09-24T09:00:56Z</time>
      </trkpt>
      <trkpt lat="50.55252" lon="3.62">
        <ele>63.1</ele>
        <time>2017-09-24T09:01:10Z</time>
      </trkpt>
      <trkpt lat="50.55253" lon="3.62002">
        <ele>64.55</ele>
        <time>2017-09-24T09:01:12Z</time>
      </trkpt>
      <trkpt lat="50.55254" lon="3.62004">
        <ele>64.55</ele>
        <time>2017-09-24T09:01:13Z</time>
      </trkpt>
      <trkpt lat="50.55263" lon="3.62036">
        <ele>65.03</ele>
        <time>2017-09-24T09:01:29Z</time>
      </trkpt>
      <trkpt lat="50.55271" lon="3.62063">
        <ele>65.51</ele>
        <time>2017-09-24T09:01:44Z</time>
      </trkpt>
      <trkpt lat="50.55282" lon="3.62098">
        <ele>66.47</ele>
        <time>2017-09-24T09:02:02Z</time>
      </trkpt>
      <trkpt lat="50.55296" lon="3.62135">
        <ele>66.47</ele>
        <time>2017-09-24T09:02:20Z</time>
      </trkpt>
      <trkpt lat="50.55297" lon="3.62136">
        <ele>66.47</ele>
        <time>2017-09-24T09:02:21Z</time>
      </trkpt>
      <trkpt lat="50.55298" lon="3.62138">
        <ele>66.47</ele>
        <time>2017-09-24T09:02:22Z</time>
      </trkpt>
      <trkpt lat="50.55299" lon="3.62139">
        <ele>66.47</ele>
        <time>2017-09-24T09:02:23Z</time>
      </trkpt>
      <trkpt lat="50.55308" lon="3.62152">
        <ele>66.95</ele>
        <time>2017-09-24T09:02:32Z</time>
      </trkpt>
      <trkpt lat="50.55309" lon="3.62154">
        <ele>66.95</ele>
        <time>2017-09-24T09:02:33Z</time>
      </trkpt>
      <trkpt lat="50.5531" lon="3.62155">
        <ele>66.95</ele>
        <time>2017-09-24T09:02:34Z</time>
      </trkpt>
      <trkpt lat="50.55311" lon="3.62157">
        <ele>66.95</ele>
        <time>2017-09-24T09:02:35Z</time>
      </trkpt>
      <trkpt lat="50.55312" lon="3.62158">
        <ele>66.95</ele>
        <time>2017-09-24T09:02:36Z</time>
      </trkpt>
      <trkpt lat="50.55313" lon="3.62159">
        <ele>66.95</ele>
        <time>2017-09-24T09:02:37Z</time>
      </trkpt>
      <trkpt lat="50.55314" lon="3.62161">
        <ele>66.95</ele>
        <time>2017-09-24T09:02:38Z</time>
      </trkpt>
      <trkpt lat="50.55315" lon="3.62162">
        <ele>66.95</ele>
        <time>2017-09-24T09:02:39Z</time>
      </trkpt>
      <trkpt lat="50.55316" lon="3.62163">
        <ele>66.95</ele>
        <time>2017-09-24T09:02:40Z</time>
      </trkpt>
      <trkpt lat="50.55317" lon="3.62165">
        <ele>66.95</ele>
        <time>2017-09-24T09:02:41Z</time>
      </trkpt>
      <trkpt lat="50.55319" lon="3.62167">
        <ele>66.95</ele>
        <time>2017-09-24T09:02:42Z</time>
      </trkpt>
      <trkpt lat="50.55335" lon="3.62194">
        <ele>67.43</ele>
        <time>2017-09-24T09:03:01Z</time>
      </trkpt>
      <trkpt lat="50.5535" lon="3.62213">
        <ele>67.43</ele>
        <time>2017-09-24T09:03:16Z</time>
      </trkpt>
      <trkpt lat="50.55366" lon="3.62229">
        <ele>67.91</ele>
        <time>2017-09-24T09:03:31Z</time>
      </trkpt>
      <trkpt lat="50.55382" lon="3.62252">
        <ele>68.39</ele>
        <time>2017-09-24T09:03:48Z</time>
      </trkpt>
      <trkpt lat="50.554" lon="3.62274">
        <ele>68.87</ele>
        <time>2017-09-24T09:04:05Z</time>
      </trkpt>
      <trkpt lat="50.55417" lon="3.62302">
        <ele>69.35</ele>
        <time>2017-09-24T09:04:24Z</time>
      </trkpt>
      <trkpt lat="50.55428" lon="3.62331">
        <ele>69.83</ele>
        <time>2017-09-24T09:04:41Z</time>
      </trkpt>
      <trkpt lat="50.55438" lon="3.62355">
        <ele>69.83</ele>
        <time>2017-09-24T09:04:57Z</time>
      </trkpt>
      <trkpt lat="50.55446" lon="3.62376">
        <ele>70.31</ele>
        <time>2017-09-24T09:05:09Z</time>
      </trkpt>
      <trkpt lat="50.55447" lon="3.62377">
        <ele>70.31</ele>
        <time>2017-09-24T09:05:10Z</time>
      </trkpt>
      <trkpt lat="50.55448" lon="3.62378">
        <ele>70.31</ele>
        <time>2017-09-24T09:05:11Z</time>
      </trkpt>
      <trkpt lat="50.55449" lon="3.6238">
        <ele>70.31</ele>
        <time>2017-09-24T09:05:12Z</time>
      </trkpt>
      <trkpt lat="50.5545" lon="3.62381">
        <ele>70.31</ele>
        <time>2017-09-24T09:05:13Z</time>
      </trkpt>
      <trkpt lat="50.5546" lon="3.6241">
        <ele>70.31</ele>
        <time>2017-09-24T09:05:29Z</time>
      </trkpt>
      <trkpt lat="50.55475" lon="3.62444">
        <ele>70.31</ele>
        <time>2017-09-24T09:05:50Z</time>
      </trkpt>
      <trkpt lat="50.55479" lon="3.62451">
        <ele>70.79</ele>
        <time>2017-09-24T09:05:55Z</time>
      </trkpt>
      <trkpt lat="50.5548" lon="3.62453">
        <ele>70.79</ele>
        <time>2017-09-24T09:05:56Z</time>
      </trkpt>
      <trkpt lat="50.55481" lon="3.62455">
        <ele>70.79</ele>
        <time>2017-09-24T09:05:57Z</time>
      </trkpt>
      <trkpt lat="50.5549" lon="3.62474">
        <ele>70.79</ele>
        <time>2017-09-24T09:06:10Z</time>
      </trkpt>
      <trkpt lat="50.55491" lon="3.62477">
        <ele>70.79</ele>
        <time>2017-09-24T09:06:12Z</time>
      </trkpt>
      <trkpt lat="50.55504" lon="3.62505">
        <ele>70.79</ele>
        <time>2017-09-24T09:06:26Z</time>
      </trkpt>
      <trkpt lat="50.55513" lon="3.62524">
        <ele>70.79</ele>
        <time>2017-09-24T09:06:39Z</time>
      </trkpt>
      <trkpt lat="50.55515" lon="3.62527">
        <ele>70.79</ele>
        <time>2017-09-24T09:06:41Z</time>
      </trkpt>
      <trkpt lat="50.55516" lon="3.62529">
        <ele>70.79</ele>
        <time>2017-09-24T09:06:43Z</time>
      </trkpt>
      <trkpt lat="50.55517" lon="3.6253">
        <ele>70.79</ele>
        <time>2017-09-24T09:06:44Z</time>
      </trkpt>
      <trkpt lat="50.55518" lon="3.62531">
        <ele>70.79</ele>
        <time>2017-09-24T09:06:45Z</time>
      </trkpt>
      <trkpt lat="50.55519" lon="3.62533">
        <ele>70.79</ele>
        <time>2017-09-24T09:06:46Z</time>
      </trkpt>
      <trkpt lat="50.5552" lon="3.62534">
        <ele>70.79</ele>
        <time>2017-09-24T09:06:47Z</time>
      </trkpt>
      <trkpt lat="50.55521" lon="3.62535">
        <ele>70.79</ele>
        <time>2017-09-24T09:06:48Z</time>
      </trkpt>
      <trkpt lat="50.55539" lon="3.6255">
        <ele>71.27</ele>
        <time>2017-09-24T09:07:02Z</time>
      </trkpt>
      <trkpt lat="50.55556" lon="3.62562">
        <ele>71.27</ele>
        <time>2017-09-24T09:07:16Z</time>
      </trkpt>
      <trkpt lat="50.55579" lon="3.62572">
        <ele>71.27</ele>
        <time>2017-09-24T09:07:35Z</time>
      </trkpt>
      <trkpt lat="50.55602" lon="3.62571">
        <ele>71.27</ele>
        <time>2017-09-24T09:07:51Z</time>
      </trkpt>
      <trkpt lat="50.55624" lon="3.62598">
        <ele>70.31</ele>
        <time>2017-09-24T09:08:09Z</time>
      </trkpt>
      <trkpt lat="50.55627" lon="3.62623">
        <ele>70.31</ele>
        <time>2017-09-24T09:08:24Z</time>
      </trkpt>
      <trkpt lat="50.5563" lon="3.62646">
        <ele>70.31</ele>
        <time>2017-09-24T09:08:38Z</time>
      </trkpt>
      <trkpt lat="50.55638" lon="3.62662">
        <ele>70.31</ele>
        <time>2017-09-24T09:08:53Z</time>
      </trkpt>
      <trkpt lat="50.55653" lon="3.62702">
        <ele>70.31</ele>
        <time>2017-09-24T09:09:06Z</time>
      </trkpt>
      <trkpt lat="50.55668" lon="3.62734">
        <ele>70.31</ele>
        <time>2017-09-24T09:09:22Z</time>
      </trkpt>
      <trkpt lat="50.55678" lon="3.62755">
        <ele>70.31</ele>
        <time>2017-09-24T09:09:37Z</time>
      </trkpt>
      <trkpt lat="50.55693" lon="3.62788">
        <ele>69.83</ele>
        <time>2017-09-24T09:09:57Z</time>
      </trkpt>
      <trkpt lat="50.55705" lon="3.62812">
        <ele>69.35</ele>
        <time>2017-09-24T09:10:11Z</time>
      </trkpt>
      <trkpt lat="50.55722" lon="3.62844">
        <ele>69.35</ele>
        <time>2017-09-24T09:10:31Z</time>
      </trkpt>
      <trkpt lat="50.55724" lon="3.62848">
        <ele>69.35</ele>
        <time>2017-09-24T09:10:33Z</time>
      </trkpt>
      <trkpt lat="50.55724" lon="3.62849">
        <ele>69.35</ele>
        <time>2017-09-24T09:10:34Z</time>
      </trkpt>
      <trkpt lat="50.55737" lon="3.62878">
        <ele>68.87</ele>
        <time>2017-09-24T09:10:51Z</time>
      </trkpt>
      <trkpt lat="50.55751" lon="3.62911">
        <ele>68.39</ele>
        <time>2017-09-24T09:11:08Z</time>
      </trkpt>
      <trkpt lat="50.55762" lon="3.6293">
        <ele>68.39</ele>
        <time>2017-09-24T09:11:20Z</time>
      </trkpt>
      <trkpt lat="50.55763" lon="3.62931">
        <ele>68.39</ele>
        <time>2017-09-24T09:11:21Z</time>
      </trkpt>
      <trkpt lat="50.55765" lon="3.62932">
        <ele>68.39</ele>
        <time>2017-09-24T09:11:23Z</time>
      </trkpt>
      <trkpt lat="50.55766" lon="3.62932">
        <ele>68.39</ele>
        <time>2017-09-24T09:11:24Z</time>
      </trkpt>
      <trkpt lat="50.55782" lon="3.62927">
        <ele>67.91</ele>
        <time>2017-09-24T09:11:38Z</time>
      </trkpt>
      <trkpt lat="50.55784" lon="3.62926">
        <ele>67.43</ele>
        <time>2017-09-24T09:11:40Z</time>
      </trkpt>
      <trkpt lat="50.55786" lon="3.62925">
        <ele>67.43</ele>
        <time>2017-09-24T09:11:41Z</time>
      </trkpt>
      <trkpt lat="50.55787" lon="3.62924">
        <ele>67.43</ele>
        <time>2017-09-24T09:11:42Z</time>
      </trkpt>
      <trkpt lat="50.55788" lon="3.62924">
        <ele>67.43</ele>
        <time>2017-09-24T09:11:43Z</time>
      </trkpt>
      <trkpt lat="50.5579" lon="3.62924">
        <ele>66.95</ele>
        <time>2017-09-24T09:11:44Z</time>
      </trkpt>
      <trkpt lat="50.55792" lon="3.62923">
        <ele>66.95</ele>
        <time>2017-09-24T09:11:45Z</time>
      </trkpt>
      <trkpt lat="50.55811" lon="3.62913">
        <ele>66.47</ele>
        <time>2017-09-24T09:12:01Z</time>
      </trkpt>
      <trkpt lat="50.55835" lon="3.62901">
        <ele>65.51</ele>
        <time>2017-09-24T09:12:19Z</time>
      </trkpt>
      <trkpt lat="50.55855" lon="3.6289">
        <ele>64.55</ele>
        <time>2017-09-24T09:12:35Z</time>
      </trkpt>
      <trkpt lat="50.55874" lon="3.6288">
        <ele>64.07</ele>
        <time>2017-09-24T09:12:50Z</time>
      </trkpt>
      <trkpt lat="50.55889" lon="3.62872">
        <ele>63.58</ele>
        <time>2017-09-24T09:13:02Z</time>
      </trkpt>
      <trkpt lat="50.5589" lon="3.62872">
        <ele>63.1</ele>
        <time>2017-09-24T09:13:03Z</time>
      </trkpt>
      <trkpt lat="50.55891" lon="3.62871">
        <ele>63.1</ele>
        <time>2017-09-24T09:13:04Z</time>
      </trkpt>
      <trkpt lat="50.55915" lon="3.6286">
        <ele>62.62</ele>
        <time>2017-09-24T09:13:22Z</time>
      </trkpt>
      <trkpt lat="50.55934" lon="3.6285">
        <ele>61.66</ele>
        <time>2017-09-24T09:13:37Z</time>
      </trkpt>
      <trkpt lat="50.55952" lon="3.62841">
        <ele>60.22</ele>
        <time>2017-09-24T09:13:52Z</time>
      </trkpt>
      <trkpt lat="50.55977" lon="3.62829">
        <ele>59.74</ele>
        <time>2017-09-24T09:14:10Z</time>
      </trkpt>
      <trkpt lat="50.56003" lon="3.62815">
        <ele>59.74</ele>
        <time>2017-09-24T09:14:29Z</time>
      </trkpt>
      <trkpt lat="50.56019" lon="3.6281">
        <ele>58.3</ele>
        <time>2017-09-24T09:14:44Z</time>
      </trkpt>
      <trkpt lat="50.56037" lon="3.62799">
        <ele>58.3</ele>
        <time>2017-09-24T09:15:00Z</time>
      </trkpt>
      <trkpt lat="50.56045" lon="3.62795">
        <ele>58.3</ele>
        <time>2017-09-24T09:15:06Z</time>
      </trkpt>
      <trkpt lat="50.56071" lon="3.62785">
        <ele>59.74</ele>
        <time>2017-09-24T09:15:23Z</time>
      </trkpt>
      <trkpt lat="50.56086" lon="3.6278">
        <ele>59.74</ele>
        <time>2017-09-24T09:15:37Z</time>
      </trkpt>
      <trkpt lat="50.56094" lon="3.62776">
        <ele>60.22</ele>
        <time>2017-09-24T09:15:46Z</time>
      </trkpt>
      <trkpt lat="50.56097" lon="3.62768">
        <ele>60.22</ele>
        <time>2017-09-24T09:15:50Z</time>
      </trkpt>
      <trkpt lat="50.56101" lon="3.62746">
        <ele>60.22</ele>
        <time>2017-09-24T09:16:03Z</time>
      </trkpt>
      <trkpt lat="50.561" lon="3.6272">
        <ele>60.22</ele>
        <time>2017-09-24T09:16:17Z</time>
      </trkpt>
      <trkpt lat="50.56099" lon="3.62716">
        <ele>59.26</ele>
        <time>2017-09-24T09:16:20Z</time>
      </trkpt>
      <trkpt lat="50.56095" lon="3.62686">
        <ele>57.82</ele>
        <time>2017-09-24T09:16:36Z</time>
      </trkpt>
      <trkpt lat="50.56089" lon="3.62652">
        <ele>56.86</ele>
        <time>2017-09-24T09:16:54Z</time>
      </trkpt>
      <trkpt lat="50.56085" lon="3.62618">
        <ele>56.86</ele>
        <time>2017-09-24T09:17:11Z</time>
      </trkpt>
      <trkpt lat="50.56084" lon="3.62616">
        <ele>56.86</ele>
        <time>2017-09-24T09:17:12Z</time>
      </trkpt>
      <trkpt lat="50.56079" lon="3.62578">
        <ele>56.86</ele>
        <time>2017-09-24T09:17:31Z</time>
      </trkpt>
      <trkpt lat="50.56075" lon="3.62553">
        <ele>56.86</ele>
        <time>2017-09-24T09:17:44Z</time>
      </trkpt>
      <trkpt lat="50.56075" lon="3.62551">
        <ele>56.86</ele>
        <time>2017-09-24T09:17:45Z</time>
      </trkpt>
      <trkpt lat="50.56075" lon="3.62549">
        <ele>56.86</ele>
        <time>2017-09-24T09:17:46Z</time>
      </trkpt>
      <trkpt lat="50.5607" lon="3.62517">
        <ele>56.86</ele>
        <time>2017-09-24T09:18:02Z</time>
      </trkpt>
      <trkpt lat="50.56064" lon="3.62479">
        <ele>56.86</ele>
        <time>2017-09-24T09:18:21Z</time>
      </trkpt>
      <trkpt lat="50.5606" lon="3.62453">
        <ele>56.86</ele>
        <time>2017-09-24T09:18:35Z</time>
      </trkpt>
      <trkpt lat="50.56059" lon="3.62439">
        <ele>56.86</ele>
        <time>2017-09-24T09:18:43Z</time>
      </trkpt>
      <trkpt lat="50.56059" lon="3.62437">
        <ele>56.86</ele>
        <time>2017-09-24T09:18:44Z</time>
      </trkpt>
      <trkpt lat="50.5606" lon="3.62436">
        <ele>56.86</ele>
        <time>2017-09-24T09:18:45Z</time>
      </trkpt>
      <trkpt lat="50.56062" lon="3.62431">
        <ele>56.86</ele>
        <time>2017-09-24T09:18:49Z</time>
      </trkpt>
      <trkpt lat="50.56063" lon="3.6243">
        <ele>56.86</ele>
        <time>2017-09-24T09:18:50Z</time>
      </trkpt>
      <trkpt lat="50.56064" lon="3.62429">
        <ele>56.86</ele>
        <time>2017-09-24T09:18:51Z</time>
      </trkpt>
      <trkpt lat="50.56065" lon="3.62429">
        <ele>56.86</ele>
        <time>2017-09-24T09:18:52Z</time>
      </trkpt>
      <trkpt lat="50.56066" lon="3.62428">
        <ele>56.86</ele>
        <time>2017-09-24T09:18:53Z</time>
      </trkpt>
      <trkpt lat="50.56068" lon="3.62428">
        <ele>56.86</ele>
        <time>2017-09-24T09:18:54Z</time>
      </trkpt>
      <trkpt lat="50.56073" lon="3.62426">
        <ele>56.86</ele>
        <time>2017-09-24T09:18:58Z</time>
      </trkpt>
      <trkpt lat="50.56086" lon="3.62424">
        <ele>56.86</ele>
        <time>2017-09-24T09:19:08Z</time>
      </trkpt>
      <trkpt lat="50.56087" lon="3.62425">
        <ele>56.86</ele>
        <time>2017-09-24T09:19:09Z</time>
      </trkpt>
      <trkpt lat="50.56088" lon="3.62422">
        <ele>56.86</ele>
        <time>2017-09-24T09:19:10Z</time>
      </trkpt>
      <trkpt lat="50.5609" lon="3.62422">
        <ele>56.86</ele>
        <time>2017-09-24T09:19:11Z</time>
      </trkpt>
      <trkpt lat="50.56091" lon="3.62421">
        <ele>56.86</ele>
        <time>2017-09-24T09:19:12Z</time>
      </trkpt>
      <trkpt lat="50.56091" lon="3.6242">
        <ele>56.86</ele>
        <time>2017-09-24T09:19:13Z</time>
      </trkpt>
      <trkpt lat="50.56092" lon="3.62419">
        <ele>56.86</ele>
        <time>2017-09-24T09:19:14Z</time>
      </trkpt>
      <trkpt lat="50.56109" lon="3.62409">
        <ele>56.37</ele>
        <time>2017-09-24T09:19:29Z</time>
      </trkpt>
      <trkpt lat="50.56132" lon="3.62399">
        <ele>56.37</ele>
        <time>2017-09-24T09:19:46Z</time>
      </trkpt>
      <trkpt lat="50.56145" lon="3.62391">
        <ele>55.89</ele>
        <time>2017-09-24T09:19:58Z</time>
      </trkpt>
      <trkpt lat="50.56147" lon="3.6239">
        <ele>55.89</ele>
        <time>2017-09-24T09:20:00Z</time>
      </trkpt>
      <trkpt lat="50.56172" lon="3.6238">
        <ele>55.41</ele>
        <time>2017-09-24T09:20:20Z</time>
      </trkpt>
      <trkpt lat="50.56196" lon="3.62374">
        <ele>55.41</ele>
        <time>2017-09-24T09:20:38Z</time>
      </trkpt>
      <trkpt lat="50.5622" lon="3.62371">
        <ele>54.93</ele>
        <time>2017-09-24T09:20:55Z</time>
      </trkpt>
      <trkpt lat="50.56247" lon="3.62365">
        <ele>54.45</ele>
        <time>2017-09-24T09:21:16Z</time>
      </trkpt>
      <trkpt lat="50.56265" lon="3.62357">
        <ele>54.45</ele>
        <time>2017-09-24T09:21:30Z</time>
      </trkpt>
      <trkpt lat="50.56288" lon="3.62346">
        <ele>54.45</ele>
        <time>2017-09-24T09:21:47Z</time>
      </trkpt>
      <trkpt lat="50.56313" lon="3.62335">
        <ele>53.97</ele>
        <time>2017-09-24T09:22:04Z</time>
      </trkpt>
      <trkpt lat="50.56336" lon="3.62323">
        <ele>53.97</ele>
        <time>2017-09-24T09:22:21Z</time>
      </trkpt>
      <trkpt lat="50.56353" lon="3.62319">
        <ele>53.97</ele>
        <time>2017-09-24T09:22:38Z</time>
      </trkpt>
      <trkpt lat="50.56374" lon="3.6231">
        <ele>53.97</ele>
        <time>2017-09-24T09:22:53Z</time>
      </trkpt>
      <trkpt lat="50.56391" lon="3.62301">
        <ele>53.97</ele>
        <time>2017-09-24T09:23:09Z</time>
      </trkpt>
      <trkpt lat="50.56404" lon="3.62296">
        <ele>54.45</ele>
        <time>2017-09-24T09:23:19Z</time>
      </trkpt>
      <trkpt lat="50.56406" lon="3.62296">
        <ele>54.45</ele>
        <time>2017-09-24T09:23:21Z</time>
      </trkpt>
      <trkpt lat="50.56407" lon="3.62296">
        <ele>54.45</ele>
        <time>2017-09-24T09:23:22Z</time>
      </trkpt>
      <trkpt lat="50.56408" lon="3.62297">
        <ele>54.45</ele>
        <time>2017-09-24T09:23:23Z</time>
      </trkpt>
      <trkpt lat="50.5641" lon="3.62298">
        <ele>54.45</ele>
        <time>2017-09-24T09:23:24Z</time>
      </trkpt>
      <trkpt lat="50.56412" lon="3.62305">
        <ele>54.45</ele>
        <time>2017-09-24T09:23:29Z</time>
      </trkpt>
      <trkpt lat="50.56413" lon="3.62311">
        <ele>54.45</ele>
        <time>2017-09-24T09:23:32Z</time>
      </trkpt>
      <trkpt lat="50.56414" lon="3.62314">
        <ele>54.45</ele>
        <time>2017-09-24T09:23:34Z</time>
      </trkpt>
      <trkpt lat="50.56423" lon="3.62356">
        <ele>53.49</ele>
        <time>2017-09-24T09:23:55Z</time>
      </trkpt>
      <trkpt lat="50.56435" lon="3.624">
        <ele>53.49</ele>
        <time>2017-09-24T09:24:18Z</time>
      </trkpt>
      <trkpt lat="50.56436" lon="3.62403">
        <ele>54.93</ele>
        <time>2017-09-24T09:24:20Z</time>
      </trkpt>
      <trkpt lat="50.56444" lon="3.6245">
        <ele>54.93</ele>
        <time>2017-09-24T09:24:43Z</time>
      </trkpt>
      <trkpt lat="50.56456" lon="3.62506">
        <ele>54.93</ele>
        <time>2017-09-24T09:25:12Z</time>
      </trkpt>
      <trkpt lat="50.56465" lon="3.62552">
        <ele>54.93</ele>
        <time>2017-09-24T09:25:36Z</time>
      </trkpt>
      <trkpt lat="50.56476" lon="3.62599">
        <ele>55.41</ele>
        <time>2017-09-24T09:26:01Z</time>
      </trkpt>
      <trkpt lat="50.56486" lon="3.62651">
        <ele>55.89</ele>
        <time>2017-09-24T09:26:27Z</time>
      </trkpt>
      <trkpt lat="50.56497" lon="3.62702">
        <ele>55.89</ele>
        <time>2017-09-24T09:26:52Z</time>
      </trkpt>
      <trkpt lat="50.56505" lon="3.62746">
        <ele>56.37</ele>
        <time>2017-09-24T09:27:15Z</time>
      </trkpt>
      <trkpt lat="50.56511" lon="3.62802">
        <ele>56.37</ele>
        <time>2017-09-24T09:27:44Z</time>
      </trkpt>
      <trkpt lat="50.56511" lon="3.62856">
        <ele>56.86</ele>
        <time>2017-09-24T09:28:10Z</time>
      </trkpt>
      <trkpt lat="50.56511" lon="3.6291">
        <ele>56.86</ele>
        <time>2017-09-24T09:28:37Z</time>
      </trkpt>
      <trkpt lat="50.56513" lon="3.62952">
        <ele>57.34</ele>
        <time>2017-09-24T09:29:01Z</time>
      </trkpt>
      <trkpt lat="50.56524" lon="3.63003">
        <ele>57.34</ele>
        <time>2017-09-24T09:29:27Z</time>
      </trkpt>
      <trkpt lat="50.56536" lon="3.63048">
        <ele>57.82</ele>
        <time>2017-09-24T09:29:51Z</time>
      </trkpt>
      <trkpt lat="50.56542" lon="3.63079">
        <ele>56.86</ele>
        <time>2017-09-24T09:30:08Z</time>
      </trkpt>
      <trkpt lat="50.56551" lon="3.63122">
        <ele>57.34</ele>
        <time>2017-09-24T09:30:30Z</time>
      </trkpt>
      <trkpt lat="50.56555" lon="3.63142">
        <ele>58.3</ele>
        <time>2017-09-24T09:30:40Z</time>
      </trkpt>
      <trkpt lat="50.56562" lon="3.63172">
        <ele>58.3</ele>
        <time>2017-09-24T09:30:57Z</time>
      </trkpt>
      <trkpt lat="50.56567" lon="3.63219">
        <ele>58.3</ele>
        <time>2017-09-24T09:31:21Z</time>
      </trkpt>
      <trkpt lat="50.56554" lon="3.63252">
        <ele>58.3</ele>
        <time>2017-09-24T09:31:40Z</time>
      </trkpt>
      <trkpt lat="50.56534" lon="3.63286">
        <ele>58.3</ele>
        <time>2017-09-24T09:32:03Z</time>
      </trkpt>
      <trkpt lat="50.56534" lon="3.63328">
        <ele>58.78</ele>
        <time>2017-09-24T09:32:22Z</time>
      </trkpt>
      <trkpt lat="50.56545" lon="3.63379">
        <ele>59.26</ele>
        <time>2017-09-24T09:32:49Z</time>
      </trkpt>
      <trkpt lat="50.56555" lon="3.63427">
        <ele>59.26</ele>
        <time>2017-09-24T09:33:14Z</time>
      </trkpt>
      <trkpt lat="50.56562" lon="3.63476">
        <ele>59.26</ele>
        <time>2017-09-24T09:33:39Z</time>
      </trkpt>
      <trkpt lat="50.56565" lon="3.63505">
        <ele>60.7</ele>
        <time>2017-09-24T09:33:54Z</time>
      </trkpt>
      <trkpt lat="50.56564" lon="3.63507">
        <ele>60.7</ele>
        <time>2017-09-24T09:33:55Z</time>
      </trkpt>
      <trkpt lat="50.56564" lon="3.63509">
        <ele>60.7</ele>
        <time>2017-09-24T09:33:56Z</time>
      </trkpt>
      <trkpt lat="50.5656" lon="3.63515">
        <ele>60.7</ele>
        <time>2017-09-24T09:34:01Z</time>
      </trkpt>
      <trkpt lat="50.56537" lon="3.63546">
        <ele>61.18</ele>
        <time>2017-09-24T09:34:21Z</time>
      </trkpt>
      <trkpt lat="50.56511" lon="3.63569">
        <ele>61.18</ele>
        <time>2017-09-24T09:34:44Z</time>
      </trkpt>
      <trkpt lat="50.56493" lon="3.63591">
        <ele>61.66</ele>
        <time>2017-09-24T09:35:02Z</time>
      </trkpt>
      <trkpt lat="50.56492" lon="3.63593">
        <ele>61.66</ele>
        <time>2017-09-24T09:35:03Z</time>
      </trkpt>
      <trkpt lat="50.56492" lon="3.63595">
        <ele>61.66</ele>
        <time>2017-09-24T09:35:04Z</time>
      </trkpt>
      <trkpt lat="50.56481" lon="3.63638">
        <ele>61.66</ele>
        <time>2017-09-24T09:35:26Z</time>
      </trkpt>
      <trkpt lat="50.56491" lon="3.63679">
        <ele>62.62</ele>
        <time>2017-09-24T09:35:48Z</time>
      </trkpt>
      <trkpt lat="50.56508" lon="3.63726">
        <ele>61.66</ele>
        <time>2017-09-24T09:36:14Z</time>
      </trkpt>
      <trkpt lat="50.56525" lon="3.6377">
        <ele>61.66</ele>
        <time>2017-09-24T09:36:38Z</time>
      </trkpt>
      <trkpt lat="50.56541" lon="3.63821">
        <ele>63.1</ele>
        <time>2017-09-24T09:37:06Z</time>
      </trkpt>
      <trkpt lat="50.56552" lon="3.63871">
        <ele>62.62</ele>
        <time>2017-09-24T09:37:33Z</time>
      </trkpt>
      <trkpt lat="50.56539" lon="3.6392">
        <ele>61.18</ele>
        <time>2017-09-24T09:37:58Z</time>
      </trkpt>
      <trkpt lat="50.5652" lon="3.63967">
        <ele>60.7</ele>
        <time>2017-09-24T09:38:26Z</time>
      </trkpt>
      <trkpt lat="50.56519" lon="3.6402">
        <ele>60.22</ele>
        <time>2017-09-24T09:38:53Z</time>
      </trkpt>
      <trkpt lat="50.5653" lon="3.64065">
        <ele>59.74</ele>
        <time>2017-09-24T09:39:16Z</time>
      </trkpt>
      <trkpt lat="50.56548" lon="3.64112">
        <ele>59.26</ele>
        <time>2017-09-24T09:39:42Z</time>
      </trkpt>
      <trkpt lat="50.56552" lon="3.64163">
        <ele>59.26</ele>
        <time>2017-09-24T09:40:07Z</time>
      </trkpt>
      <trkpt lat="50.56556" lon="3.64216">
        <ele>59.26</ele>
        <time>2017-09-24T09:40:33Z</time>
      </trkpt>
      <trkpt lat="50.56562" lon="3.64258">
        <ele>59.26</ele>
        <time>2017-09-24T09:40:54Z</time>
      </trkpt>
      <trkpt lat="50.56565" lon="3.64309">
        <ele>59.26</ele>
        <time>2017-09-24T09:41:20Z</time>
      </trkpt>
      <trkpt lat="50.56573" lon="3.64356">
        <ele>59.26</ele>
        <time>2017-09-24T09:41:45Z</time>
      </trkpt>
      <trkpt lat="50.56599" lon="3.64364">
        <ele>58.78</ele>
        <time>2017-09-24T09:42:04Z</time>
      </trkpt>
      <trkpt lat="50.56609" lon="3.64364">
        <ele>58.78</ele>
        <time>2017-09-24T09:42:14Z</time>
      </trkpt>
      <trkpt lat="50.56637" lon="3.64353">
        <ele>58.78</ele>
        <time>2017-09-24T09:42:34Z</time>
      </trkpt>
      <trkpt lat="50.56658" lon="3.64338">
        <ele>59.26</ele>
        <time>2017-09-24T09:42:52Z</time>
      </trkpt>
      <trkpt lat="50.56689" lon="3.64319">
        <ele>59.26</ele>
        <time>2017-09-24T09:43:16Z</time>
      </trkpt>
      <trkpt lat="50.56715" lon="3.64299">
        <ele>59.26</ele>
        <time>2017-09-24T09:43:39Z</time>
      </trkpt>
      <trkpt lat="50.5675" lon="3.64277">
        <ele>59.26</ele>
        <time>2017-09-24T09:44:07Z</time>
      </trkpt>
      <trkpt lat="50.5678" lon="3.64267">
        <ele>57.82</ele>
        <time>2017-09-24T09:44:32Z</time>
      </trkpt>
      <trkpt lat="50.56819" lon="3.64268">
        <ele>57.34</ele>
        <time>2017-09-24T09:45:00Z</time>
      </trkpt>
      <trkpt lat="50.56859" lon="3.6427">
        <ele>56.86</ele>
        <time>2017-09-24T09:45:31Z</time>
      </trkpt>
      <trkpt lat="50.56889" lon="3.64268">
        <ele>56.37</ele>
        <time>2017-09-24T09:45:55Z</time>
      </trkpt>
      <trkpt lat="50.56913" lon="3.6426">
        <ele>55.41</ele>
        <time>2017-09-24T09:46:15Z</time>
      </trkpt>
      <trkpt lat="50.56945" lon="3.64243">
        <ele>55.41</ele>
        <time>2017-09-24T09:46:40Z</time>
      </trkpt>
      <trkpt lat="50.56973" lon="3.64227">
        <ele>55.41</ele>
        <time>2017-09-24T09:47:03Z</time>
      </trkpt>
      <trkpt lat="50.57007" lon="3.64205">
        <ele>54.93</ele>
        <time>2017-09-24T09:47:30Z</time>
      </trkpt>
      <trkpt lat="50.57038" lon="3.64189">
        <ele>54.93</ele>
        <time>2017-09-24T09:47:54Z</time>
      </trkpt>
      <trkpt lat="50.57054" lon="3.6419">
        <ele>54.93</ele>
        <time>2017-09-24T09:48:08Z</time>
      </trkpt>
      <trkpt lat="50.57054" lon="3.64192">
        <ele>54.93</ele>
        <time>2017-09-24T09:48:09Z</time>
      </trkpt>
      <trkpt lat="50.57055" lon="3.64193">
        <ele>54.93</ele>
        <time>2017-09-24T09:48:10Z</time>
      </trkpt>
      <trkpt lat="50.57056" lon="3.64195">
        <ele>54.93</ele>
        <time>2017-09-24T09:48:11Z</time>
      </trkpt>
      <trkpt lat="50.57057" lon="3.64197">
        <ele>54.93</ele>
        <time>2017-09-24T09:48:12Z</time>
      </trkpt>
      <trkpt lat="50.57073" lon="3.64235">
        <ele>53.97</ele>
        <time>2017-09-24T09:48:36Z</time>
      </trkpt>
      <trkpt lat="50.57103" lon="3.64271">
        <ele>53.49</ele>
        <time>2017-09-24T09:49:00Z</time>
      </trkpt>
      <trkpt lat="50.57126" lon="3.64303">
        <ele>53.49</ele>
        <time>2017-09-24T09:49:22Z</time>
      </trkpt>
      <trkpt lat="50.57157" lon="3.64345">
        <ele>52.53</ele>
        <time>2017-09-24T09:49:51Z</time>
      </trkpt>
      <trkpt lat="50.57179" lon="3.64379">
        <ele>52.05</ele>
        <time>2017-09-24T09:50:15Z</time>
      </trkpt>
      <trkpt lat="50.57202" lon="3.64408">
        <ele>51.57</ele>
        <time>2017-09-24T09:50:37Z</time>
      </trkpt>
      <trkpt lat="50.57226" lon="3.64442">
        <ele>51.57</ele>
        <time>2017-09-24T09:51:02Z</time>
      </trkpt>
      <trkpt lat="50.5725" lon="3.64477">
        <ele>51.09</ele>
        <time>2017-09-24T09:51:26Z</time>
      </trkpt>
      <trkpt lat="50.57274" lon="3.64516">
        <ele>51.09</ele>
        <time>2017-09-24T09:51:52Z</time>
      </trkpt>
      <trkpt lat="50.57298" lon="3.64544">
        <ele>50.13</ele>
        <time>2017-09-24T09:52:15Z</time>
      </trkpt>
      <trkpt lat="50.57321" lon="3.64565">
        <ele>50.13</ele>
        <time>2017-09-24T09:52:37Z</time>
      </trkpt>
      <trkpt lat="50.57347" lon="3.6459">
        <ele>50.13</ele>
        <time>2017-09-24T09:52:57Z</time>
      </trkpt>
      <trkpt lat="50.57371" lon="3.6461">
        <ele>49.65</ele>
        <time>2017-09-24T09:53:18Z</time>
      </trkpt>
      <trkpt lat="50.57392" lon="3.64631">
        <ele>49.65</ele>
        <time>2017-09-24T09:53:39Z</time>
      </trkpt>
      <trkpt lat="50.5739" lon="3.64638">
        <ele>49.65</ele>
        <time>2017-09-24T09:53:46Z</time>
      </trkpt>
      <trkpt lat="50.57377" lon="3.64681">
        <ele>49.65</ele>
        <time>2017-09-24T09:54:10Z</time>
      </trkpt>
      <trkpt lat="50.57363" lon="3.6473">
        <ele>49.65</ele>
        <time>2017-09-24T09:54:32Z</time>
      </trkpt>
      <trkpt lat="50.57347" lon="3.64776">
        <ele>49.65</ele>
        <time>2017-09-24T09:54:57Z</time>
      </trkpt>
      <trkpt lat="50.57339" lon="3.64801">
        <ele>50.13</ele>
        <time>2017-09-24T09:55:16Z</time>
      </trkpt>
      <trkpt lat="50.57353" lon="3.64798">
        <ele>50.13</ele>
        <time>2017-09-24T09:55:30Z</time>
      </trkpt>
      <trkpt lat="50.57382" lon="3.64786">
        <ele>50.13</ele>
        <time>2017-09-24T09:55:52Z</time>
      </trkpt>
      <trkpt lat="50.574" lon="3.64797">
        <ele>50.13</ele>
        <time>2017-09-24T09:56:10Z</time>
      </trkpt>
      <trkpt lat="50.57418" lon="3.6482">
        <ele>48.68</ele>
        <time>2017-09-24T09:56:30Z</time>
      </trkpt>
      <trkpt lat="50.57436" lon="3.64807">
        <ele>48.68</ele>
        <time>2017-09-24T09:56:46Z</time>
      </trkpt>
      <trkpt lat="50.57448" lon="3.64792">
        <ele>48.68</ele>
        <time>2017-09-24T09:57:08Z</time>
      </trkpt>
      <trkpt lat="50.57449" lon="3.64794">
        <ele>49.16</ele>
        <time>2017-09-24T09:57:26Z</time>
      </trkpt>
      <trkpt lat="50.57449" lon="3.64794">
        <ele>50.61</ele>
        <time>2017-09-24T09:57:33Z</time>
      </trkpt>
      <trkpt lat="50.57449" lon="3.64794">
        <ele>49.16</ele>
        <time>2017-09-24T09:57:48Z</time>
      </trkpt>
      <trkpt lat="50.57447" lon="3.64793">
        <ele>50.61</ele>
        <time>2017-09-24T09:58:14Z</time>
      </trkpt>
      <trkpt lat="50.57449" lon="3.64793">
        <ele>50.61</ele>
        <time>2017-09-24T09:58:41Z</time>
      </trkpt>
      <trkpt lat="50.57451" lon="3.64799">
        <ele>50.61</ele>
        <time>2017-09-24T09:59:00Z</time>
      </trkpt>
      <trkpt lat="50.57451" lon="3.64797">
        <ele>50.61</ele>
        <time>2017-09-24T09:59:30Z</time>
      </trkpt>
      <trkpt lat="50.57452" lon="3.64798">
        <ele>51.09</ele>
        <time>2017-09-24T09:59:52Z</time>
      </trkpt>
    </trkseg>
  </trk>
</gpx>